
<gpx xmlns="http://www.topografix.com/GPX/1/1" xmlns:xsi="http://www.w3.org/2001/XMLSchema-instance" version="1.1" xsi:schemaLocation="http://www.topografix.com/GPX/1/1 http://www.topografix.com/GPX/1/1/gpx.xsd" creator="MotionXGPSFull 24.2 Build 5063R64">  <trk>
  <name>Porezen (Peter_Ul., 03.12.2017)</name>  <desc>3 Dec 2017 10:09 am</desc>  <trkseg>
  <trkpt lat="46.1806852" lon="14.0057686">  <ele>1052.810</ele>  <time>2017-12-03T09:09:16.025Z</time>  </trkpt>
  <trkpt lat="46.1806977" lon="14.0056399">  <ele>1052.324</ele>  <time>2017-12-03T09:09:28.082Z</time>  </trkpt>
  <trkpt lat="46.1806967" lon="14.0055023">  <ele>1052.278</ele>  <time>2017-12-03T09:09:38.635Z</time>  </trkpt>
  <trkpt lat="46.1807253" lon="14.0053750">  <ele>1052.847</ele>  <time>2017-12-03T09:09:49.413Z</time>  </trkpt>
  <trkpt lat="46.1807706" lon="14.0052529">  <ele>1053.944</ele>  <time>2017-12-03T09:10:01.615Z</time>  </trkpt>
  <trkpt lat="46.1808272" lon="14.0051446">  <ele>1055.093</ele>  <time>2017-12-03T09:10:13.383Z</time>  </trkpt>
  <trkpt lat="46.1808958" lon="14.0050550">  <ele>1056.091</ele>  <time>2017-12-03T09:10:23.830Z</time>  </trkpt>
  <trkpt lat="46.1809571" lon="14.0049529">  <ele>1057.081</ele>  <time>2017-12-03T09:10:33.819Z</time>  </trkpt>
  <trkpt lat="46.1809909" lon="14.0048303">  <ele>1057.922</ele>  <time>2017-12-03T09:10:43.157Z</time>  </trkpt>
  <trkpt lat="46.1810167" lon="14.0046975">  <ele>1058.346</ele>  <time>2017-12-03T09:10:52.784Z</time>  </trkpt>
  <trkpt lat="46.1810268" lon="14.0045679">  <ele>1058.638</ele>  <time>2017-12-03T09:11:02.011Z</time>  </trkpt>
  <trkpt lat="46.1809999" lon="14.0044265">  <ele>1059.132</ele>  <time>2017-12-03T09:11:12.114Z</time>  </trkpt>
  <trkpt lat="46.1809846" lon="14.0042904">  <ele>1059.638</ele>  <time>2017-12-03T09:11:22.550Z</time>  </trkpt>
  <trkpt lat="46.1809696" lon="14.0041505">  <ele>1060.475</ele>  <time>2017-12-03T09:11:33.758Z</time>  </trkpt>
  <trkpt lat="46.1809975" lon="14.0040141">  <ele>1062.149</ele>  <time>2017-12-03T09:11:45.036Z</time>  </trkpt>
  <trkpt lat="46.1810348" lon="14.0038820">  <ele>1063.925</ele>  <time>2017-12-03T09:11:55.666Z</time>  </trkpt>
  <trkpt lat="46.1810586" lon="14.0037466">  <ele>1065.235</ele>  <time>2017-12-03T09:12:05.095Z</time>  </trkpt>
  <trkpt lat="46.1810969" lon="14.0036283">  <ele>1066.408</ele>  <time>2017-12-03T09:12:14.364Z</time>  </trkpt>
  <trkpt lat="46.1811091" lon="14.0034889">  <ele>1067.316</ele>  <time>2017-12-03T09:12:24.022Z</time>  </trkpt>
  <trkpt lat="46.1811091" lon="14.0034889">  <ele>1067.684</ele>  <time>2017-12-03T09:12:33.022Z</time>  </trkpt>
  <trkpt lat="46.1811091" lon="14.0034889">  <ele>1067.555</ele>  <time>2017-12-03T09:12:33.122Z</time>  </trkpt>
  <trkpt lat="46.1811666" lon="14.0032994">  <ele>1067.079</ele>  <time>2017-12-03T09:12:51.072Z</time>  </trkpt>
  <trkpt lat="46.1812141" lon="14.0031883">  <ele>1066.634</ele>  <time>2017-12-03T09:12:59.239Z</time>  </trkpt>
  <trkpt lat="46.1812616" lon="14.0030744">  <ele>1066.696</ele>  <time>2017-12-03T09:13:08.031Z</time>  </trkpt>
  <trkpt lat="46.1812651" lon="14.0029333">  <ele>1067.557</ele>  <time>2017-12-03T09:13:18.089Z</time>  </trkpt>
  <trkpt lat="46.1813182" lon="14.0028134">  <ele>1068.970</ele>  <time>2017-12-03T09:13:27.062Z</time>  </trkpt>
  <trkpt lat="46.1813930" lon="14.0027265">  <ele>1070.198</ele>  <time>2017-12-03T09:13:35.579Z</time>  </trkpt>
  <trkpt lat="46.1814781" lon="14.0026504">  <ele>1070.799</ele>  <time>2017-12-03T09:13:45.731Z</time>  </trkpt>
  <trkpt lat="46.1814714" lon="14.0025060">  <ele>1070.903</ele>  <time>2017-12-03T09:13:56.209Z</time>  </trkpt>
  <trkpt lat="46.1815059" lon="14.0023806">  <ele>1071.233</ele>  <time>2017-12-03T09:14:06.012Z</time>  </trkpt>
  <trkpt lat="46.1815457" lon="14.0022558">  <ele>1072.258</ele>  <time>2017-12-03T09:14:16.376Z</time>  </trkpt>
  <trkpt lat="46.1815915" lon="14.0021438">  <ele>1073.653</ele>  <time>2017-12-03T09:14:26.419Z</time>  </trkpt>
  <trkpt lat="46.1816210" lon="14.0020052">  <ele>1074.904</ele>  <time>2017-12-03T09:14:37.123Z</time>  </trkpt>
  <trkpt lat="46.1816181" lon="14.0018722">  <ele>1075.700</ele>  <time>2017-12-03T09:14:46.204Z</time>  </trkpt>
  <trkpt lat="46.1816391" lon="14.0017406">  <ele>1076.163</ele>  <time>2017-12-03T09:14:55.935Z</time>  </trkpt>
  <trkpt lat="46.1815883" lon="14.0016304">  <ele>1076.776</ele>  <time>2017-12-03T09:15:06.563Z</time>  </trkpt>
  <trkpt lat="46.1815649" lon="14.0015008">  <ele>1077.843</ele>  <time>2017-12-03T09:15:16.492Z</time>  </trkpt>
  <trkpt lat="46.1815457" lon="14.0013714">  <ele>1079.401</ele>  <time>2017-12-03T09:15:25.595Z</time>  </trkpt>
  <trkpt lat="46.1815567" lon="14.0012393">  <ele>1080.979</ele>  <time>2017-12-03T09:15:34.916Z</time>  </trkpt>
  <trkpt lat="46.1815932" lon="14.0011197">  <ele>1082.176</ele>  <time>2017-12-03T09:15:44.194Z</time>  </trkpt>
  <trkpt lat="46.1816201" lon="14.0009833">  <ele>1083.095</ele>  <time>2017-12-03T09:15:54.755Z</time>  </trkpt>
  <trkpt lat="46.1815945" lon="14.0008529">  <ele>1083.353</ele>  <time>2017-12-03T09:16:06.191Z</time>  </trkpt>
  <trkpt lat="46.1815908" lon="14.0007173">  <ele>1082.664</ele>  <time>2017-12-03T09:16:18.018Z</time>  </trkpt>
  <trkpt lat="46.1815908" lon="14.0007173">  <ele>1081.755</ele>  <time>2017-12-03T09:16:22.017Z</time>  </trkpt>
  <trkpt lat="46.1815908" lon="14.0007173">  <ele>1081.299</ele>  <time>2017-12-03T09:16:23.998Z</time>  </trkpt>
  <trkpt lat="46.1815869" lon="14.0005608">  <ele>1081.233</ele>  <time>2017-12-03T09:16:37.156Z</time>  </trkpt>
  <trkpt lat="46.1815616" lon="14.0004194">  <ele>1082.336</ele>  <time>2017-12-03T09:16:46.821Z</time>  </trkpt>
  <trkpt lat="46.1815507" lon="14.0002742">  <ele>1085.090</ele>  <time>2017-12-03T09:16:56.859Z</time>  </trkpt>
  <trkpt lat="46.1815269" lon="14.0001404">  <ele>1087.957</ele>  <time>2017-12-03T09:17:05.572Z</time>  </trkpt>
  <trkpt lat="46.1815172" lon="14.0000076">  <ele>1089.559</ele>  <time>2017-12-03T09:17:14.612Z</time>  </trkpt>
  <trkpt lat="46.1814747" lon="13.9998918">  <ele>1090.194</ele>  <time>2017-12-03T09:17:24.469Z</time>  </trkpt>
  <trkpt lat="46.1814448" lon="13.9997581">  <ele>1090.320</ele>  <time>2017-12-03T09:17:35.772Z</time>  </trkpt>
  <trkpt lat="46.1814093" lon="13.9996309">  <ele>1089.340</ele>  <time>2017-12-03T09:17:46.922Z</time>  </trkpt>
  <trkpt lat="46.1814199" lon="13.9994991">  <ele>1086.896</ele>  <time>2017-12-03T09:17:58.107Z</time>  </trkpt>
  <trkpt lat="46.1813848" lon="13.9993743">  <ele>1084.555</ele>  <time>2017-12-03T09:18:08.589Z</time>  </trkpt>
  <trkpt lat="46.1813408" lon="13.9992516">  <ele>1083.712</ele>  <time>2017-12-03T09:18:19.274Z</time>  </trkpt>
  <trkpt lat="46.1812822" lon="13.9991532">  <ele>1083.373</ele>  <time>2017-12-03T09:18:28.496Z</time>  </trkpt>
  <trkpt lat="46.1812648" lon="13.9990175">  <ele>1082.448</ele>  <time>2017-12-03T09:18:37.986Z</time>  </trkpt>
  <trkpt lat="46.1812639" lon="13.9988823">  <ele>1082.403</ele>  <time>2017-12-03T09:18:48.312Z</time>  </trkpt>
  <trkpt lat="46.1812845" lon="13.9987528">  <ele>1084.567</ele>  <time>2017-12-03T09:18:59.696Z</time>  </trkpt>
  <trkpt lat="46.1813249" lon="13.9986298">  <ele>1087.539</ele>  <time>2017-12-03T09:19:13.464Z</time>  </trkpt>
  <trkpt lat="46.1813516" lon="13.9985052">  <ele>1090.073</ele>  <time>2017-12-03T09:19:25.959Z</time>  </trkpt>
  <trkpt lat="46.1813959" lon="13.9983852">  <ele>1092.392</ele>  <time>2017-12-03T09:19:37.019Z</time>  </trkpt>
  <trkpt lat="46.1813959" lon="13.9983852">  <ele>1094.020</ele>  <time>2017-12-03T09:19:43.019Z</time>  </trkpt>
  <trkpt lat="46.1813959" lon="13.9983852">  <ele>1094.286</ele>  <time>2017-12-03T09:19:43.119Z</time>  </trkpt>
  <trkpt lat="46.1814954" lon="13.9982197">  <ele>1093.623</ele>  <time>2017-12-03T09:20:01.019Z</time>  </trkpt>
  <trkpt lat="46.1815644" lon="13.9981283">  <ele>1093.978</ele>  <time>2017-12-03T09:20:10.589Z</time>  </trkpt>
  <trkpt lat="46.1816274" lon="13.9980179">  <ele>1096.294</ele>  <time>2017-12-03T09:20:29.554Z</time>  </trkpt>
  <trkpt lat="46.1816909" lon="13.9979259">  <ele>1098.941</ele>  <time>2017-12-03T09:20:45.018Z</time>  </trkpt>
  <trkpt lat="46.1816909" lon="13.9979259">  <ele>1100.060</ele>  <time>2017-12-03T09:20:50.018Z</time>  </trkpt>
  <trkpt lat="46.1816909" lon="13.9979259">  <ele>1099.793</ele>  <time>2017-12-03T09:20:50.118Z</time>  </trkpt>
  <trkpt lat="46.1818486" lon="13.9975959">  <ele>1099.140</ele>  <time>2017-12-03T09:21:12.313Z</time>  </trkpt>
  <trkpt lat="46.1818880" lon="13.9974560">  <ele>1099.579</ele>  <time>2017-12-03T09:21:18.693Z</time>  </trkpt>
  <trkpt lat="46.1819675" lon="13.9973726">  <ele>1101.594</ele>  <time>2017-12-03T09:21:24.774Z</time>  </trkpt>
  <trkpt lat="46.1820202" lon="13.9972458">  <ele>1103.421</ele>  <time>2017-12-03T09:21:30.789Z</time>  </trkpt>
  <trkpt lat="46.1821033" lon="13.9971706">  <ele>1103.437</ele>  <time>2017-12-03T09:21:36.055Z</time>  </trkpt>
  <trkpt lat="46.1821424" lon="13.9970479">  <ele>1101.937</ele>  <time>2017-12-03T09:21:40.962Z</time>  </trkpt>
  <trkpt lat="46.1822071" lon="13.9969454">  <ele>1099.859</ele>  <time>2017-12-03T09:21:46.080Z</time>  </trkpt>
  <trkpt lat="46.1822799" lon="13.9968629">  <ele>1098.231</ele>  <time>2017-12-03T09:21:51.089Z</time>  </trkpt>
  <trkpt lat="46.1823374" lon="13.9967581">  <ele>1097.375</ele>  <time>2017-12-03T09:21:55.989Z</time>  </trkpt>
  <trkpt lat="46.1823660" lon="13.9966303">  <ele>1096.560</ele>  <time>2017-12-03T09:22:00.935Z</time>  </trkpt>
  <trkpt lat="46.1824091" lon="13.9964950">  <ele>1095.504</ele>  <time>2017-12-03T09:22:06.426Z</time>  </trkpt>
  <trkpt lat="46.1824798" lon="13.9963892">  <ele>1094.752</ele>  <time>2017-12-03T09:22:11.435Z</time>  </trkpt>
  <trkpt lat="46.1825414" lon="13.9962911">  <ele>1094.690</ele>  <time>2017-12-03T09:22:15.949Z</time>  </trkpt>
  <trkpt lat="46.1825779" lon="13.9961496">  <ele>1095.181</ele>  <time>2017-12-03T09:22:20.910Z</time>  </trkpt>
  <trkpt lat="46.1825758" lon="13.9960095">  <ele>1096.052</ele>  <time>2017-12-03T09:22:24.645Z</time>  </trkpt>
  <trkpt lat="46.1825849" lon="13.9958651">  <ele>1097.039</ele>  <time>2017-12-03T09:22:28.302Z</time>  </trkpt>
  <trkpt lat="46.1826402" lon="13.9957621">  <ele>1097.616</ele>  <time>2017-12-03T09:22:31.914Z</time>  </trkpt>
  <trkpt lat="46.1826401" lon="13.9956106">  <ele>1097.567</ele>  <time>2017-12-03T09:22:36.352Z</time>  </trkpt>
  <trkpt lat="46.1826371" lon="13.9954787">  <ele>1097.274</ele>  <time>2017-12-03T09:22:40.358Z</time>  </trkpt>
  <trkpt lat="46.1826689" lon="13.9953371">  <ele>1097.139</ele>  <time>2017-12-03T09:22:44.751Z</time>  </trkpt>
  <trkpt lat="46.1827287" lon="13.9952183">  <ele>1097.272</ele>  <time>2017-12-03T09:22:49.015Z</time>  </trkpt>
  <trkpt lat="46.1827287" lon="13.9952183">  <ele>1097.567</ele>  <time>2017-12-03T09:22:50.015Z</time>  </trkpt>
  <trkpt lat="46.1827287" lon="13.9952183">  <ele>1097.596</ele>  <time>2017-12-03T09:22:50.115Z</time>  </trkpt>
  <trkpt lat="46.1827074" lon="13.9950359">  <ele>1097.133</ele>  <time>2017-12-03T09:22:59.032Z</time>  </trkpt>
  <trkpt lat="46.1827397" lon="13.9949060">  <ele>1096.559</ele>  <time>2017-12-03T09:23:03.954Z</time>  </trkpt>
  <trkpt lat="46.1827997" lon="13.9947938">  <ele>1095.988</ele>  <time>2017-12-03T09:23:09.801Z</time>  </trkpt>
  <trkpt lat="46.1828097" lon="13.9946547">  <ele>1094.921</ele>  <time>2017-12-03T09:23:16.147Z</time>  </trkpt>
  <trkpt lat="46.1828664" lon="13.9945467">  <ele>1093.299</ele>  <time>2017-12-03T09:23:24.504Z</time>  </trkpt>
  <trkpt lat="46.1829537" lon="13.9944995">  <ele>1091.665</ele>  <time>2017-12-03T09:23:32.088Z</time>  </trkpt>
  <trkpt lat="46.1830367" lon="13.9944498">  <ele>1089.968</ele>  <time>2017-12-03T09:23:39.544Z</time>  </trkpt>
  <trkpt lat="46.1830297" lon="13.9943097">  <ele>1088.033</ele>  <time>2017-12-03T09:23:51.014Z</time>  </trkpt>
  <trkpt lat="46.1830297" lon="13.9943097">  <ele>1086.597</ele>  <time>2017-12-03T09:23:59.014Z</time>  </trkpt>
  <trkpt lat="46.1830297" lon="13.9943097">  <ele>1086.210</ele>  <time>2017-12-03T09:24:12.254Z</time>  </trkpt>
  <trkpt lat="46.1829849" lon="13.9941636">  <ele>1086.205</ele>  <time>2017-12-03T09:24:28.018Z</time>  </trkpt>
  <trkpt lat="46.1829849" lon="13.9941636">  <ele>1085.891</ele>  <time>2017-12-03T09:24:37.018Z</time>  </trkpt>
  <trkpt lat="46.1829849" lon="13.9941636">  <ele>1085.313</ele>  <time>2017-12-03T09:25:10.394Z</time>  </trkpt>
  <trkpt lat="46.1829441" lon="13.9938310">  <ele>1084.877</ele>  <time>2017-12-03T09:25:42.945Z</time>  </trkpt>
  <trkpt lat="46.1829395" lon="13.9936969">  <ele>1085.333</ele>  <time>2017-12-03T09:25:48.849Z</time>  </trkpt>
  <trkpt lat="46.1829220" lon="13.9935647">  <ele>1087.184</ele>  <time>2017-12-03T09:25:55.534Z</time>  </trkpt>
  <trkpt lat="46.1828626" lon="13.9934416">  <ele>1089.765</ele>  <time>2017-12-03T09:26:04.227Z</time>  </trkpt>
  <trkpt lat="46.1828700" lon="13.9933071">  <ele>1093.552</ele>  <time>2017-12-03T09:26:13.016Z</time>  </trkpt>
  <trkpt lat="46.1828700" lon="13.9933071">  <ele>1094.363</ele>  <time>2017-12-03T09:26:27.016Z</time>  </trkpt>
  <trkpt lat="46.1828700" lon="13.9933071">  <ele>1093.575</ele>  <time>2017-12-03T09:26:45.048Z</time>  </trkpt>
  <trkpt lat="46.1827641" lon="13.9931352">  <ele>1093.149</ele>  <time>2017-12-03T09:27:09.015Z</time>  </trkpt>
  <trkpt lat="46.1827641" lon="13.9931352">  <ele>1093.049</ele>  <time>2017-12-03T09:27:13.015Z</time>  </trkpt>
  <trkpt lat="46.1827641" lon="13.9931352">  <ele>1092.907</ele>  <time>2017-12-03T09:28:04.778Z</time>  </trkpt>
  <trkpt lat="46.1826702" lon="13.9930823">  <ele>1092.493</ele>  <time>2017-12-03T09:28:20.250Z</time>  </trkpt>
  <trkpt lat="46.1825852" lon="13.9930222">  <ele>1092.789</ele>  <time>2017-12-03T09:28:31.013Z</time>  </trkpt>
  <trkpt lat="46.1825852" lon="13.9930222">  <ele>1094.490</ele>  <time>2017-12-03T09:28:34.013Z</time>  </trkpt>
  <trkpt lat="46.1825852" lon="13.9930222">  <ele>1095.870</ele>  <time>2017-12-03T09:28:34.113Z</time>  </trkpt>
  <trkpt lat="46.1825160" lon="13.9929264">  <ele>1094.114</ele>  <time>2017-12-03T09:28:58.373Z</time>  </trkpt>
  <trkpt lat="46.1824764" lon="13.9928051">  <ele>1095.011</ele>  <time>2017-12-03T09:29:13.719Z</time>  </trkpt>
  <trkpt lat="46.1824268" lon="13.9926851">  <ele>1099.601</ele>  <time>2017-12-03T09:29:25.012Z</time>  </trkpt>
  <trkpt lat="46.1824268" lon="13.9926851">  <ele>1105.148</ele>  <time>2017-12-03T09:29:29.012Z</time>  </trkpt>
  <trkpt lat="46.1824268" lon="13.9926851">  <ele>1107.748</ele>  <time>2017-12-03T09:29:29.112Z</time>  </trkpt>
  <trkpt lat="46.1823382" lon="13.9925363">  <ele>1107.021</ele>  <time>2017-12-03T09:29:48.087Z</time>  </trkpt>
  <trkpt lat="46.1823384" lon="13.9924002">  <ele>1105.866</ele>  <time>2017-12-03T09:30:03.527Z</time>  </trkpt>
  <trkpt lat="46.1822726" lon="13.9922942">  <ele>1106.703</ele>  <time>2017-12-03T09:30:20.510Z</time>  </trkpt>
  <trkpt lat="46.1823216" lon="13.9921320">  <ele>1109.187</ele>  <time>2017-12-03T09:30:41.706Z</time>  </trkpt>
  <trkpt lat="46.1822838" lon="13.9920095">  <ele>1111.937</ele>  <time>2017-12-03T09:30:55.533Z</time>  </trkpt>
  <trkpt lat="46.1823123" lon="13.9918814">  <ele>1113.811</ele>  <time>2017-12-03T09:31:12.590Z</time>  </trkpt>
  <trkpt lat="46.1822832" lon="13.9917477">  <ele>1114.320</ele>  <time>2017-12-03T09:31:31.949Z</time>  </trkpt>
  <trkpt lat="46.1823016" lon="13.9916158">  <ele>1113.979</ele>  <time>2017-12-03T09:31:47.509Z</time>  </trkpt>
  <trkpt lat="46.1822798" lon="13.9914768">  <ele>1114.422</ele>  <time>2017-12-03T09:32:02.997Z</time>  </trkpt>
  <trkpt lat="46.1822145" lon="13.9913858">  <ele>1117.234</ele>  <time>2017-12-03T09:32:15.014Z</time>  </trkpt>
  <trkpt lat="46.1822145" lon="13.9913858">  <ele>1121.336</ele>  <time>2017-12-03T09:32:19.014Z</time>  </trkpt>
  <trkpt lat="46.1822145" lon="13.9913858">  <ele>1123.620</ele>  <time>2017-12-03T09:32:19.114Z</time>  </trkpt>
  <trkpt lat="46.1821610" lon="13.9912567">  <ele>1122.998</ele>  <time>2017-12-03T09:32:31.775Z</time>  </trkpt>
  <trkpt lat="46.1822368" lon="13.9911526">  <ele>1122.210</ele>  <time>2017-12-03T09:32:41.175Z</time>  </trkpt>
  <trkpt lat="46.1822992" lon="13.9910511">  <ele>1123.578</ele>  <time>2017-12-03T09:32:51.013Z</time>  </trkpt>
  <trkpt lat="46.1822992" lon="13.9910511">  <ele>1125.710</ele>  <time>2017-12-03T09:32:54.013Z</time>  </trkpt>
  <trkpt lat="46.1822992" lon="13.9910511">  <ele>1126.495</ele>  <time>2017-12-03T09:32:54.113Z</time>  </trkpt>
  <trkpt lat="46.1823601" lon="13.9909370">  <ele>1125.885</ele>  <time>2017-12-03T09:33:10.070Z</time>  </trkpt>
  <trkpt lat="46.1823484" lon="13.9908051">  <ele>1125.136</ele>  <time>2017-12-03T09:33:20.514Z</time>  </trkpt>
  <trkpt lat="46.1824035" lon="13.9906820">  <ele>1125.659</ele>  <time>2017-12-03T09:33:30.765Z</time>  </trkpt>
  <trkpt lat="46.1824651" lon="13.9905865">  <ele>1127.448</ele>  <time>2017-12-03T09:33:39.429Z</time>  </trkpt>
  <trkpt lat="46.1824838" lon="13.9904566">  <ele>1129.254</ele>  <time>2017-12-03T09:33:48.671Z</time>  </trkpt>
  <trkpt lat="46.1824575" lon="13.9903317">  <ele>1130.258</ele>  <time>2017-12-03T09:33:58.419Z</time>  </trkpt>
  <trkpt lat="46.1824622" lon="13.9901905">  <ele>1130.874</ele>  <time>2017-12-03T09:34:09.012Z</time>  </trkpt>
  <trkpt lat="46.1824622" lon="13.9901905">  <ele>1131.590</ele>  <time>2017-12-03T09:34:14.012Z</time>  </trkpt>
  <trkpt lat="46.1824622" lon="13.9901905">  <ele>1131.946</ele>  <time>2017-12-03T09:34:14.112Z</time>  </trkpt>
  <trkpt lat="46.1825254" lon="13.9899335">  <ele>1131.461</ele>  <time>2017-12-03T09:34:40.104Z</time>  </trkpt>
  <trkpt lat="46.1825587" lon="13.9898092">  <ele>1130.816</ele>  <time>2017-12-03T09:34:48.294Z</time>  </trkpt>
  <trkpt lat="46.1825966" lon="13.9896866">  <ele>1131.051</ele>  <time>2017-12-03T09:34:56.011Z</time>  </trkpt>
  <trkpt lat="46.1825966" lon="13.9896866">  <ele>1132.200</ele>  <time>2017-12-03T09:35:10.011Z</time>  </trkpt>
  <trkpt lat="46.1825966" lon="13.9896866">  <ele>1132.963</ele>  <time>2017-12-03T09:35:10.111Z</time>  </trkpt>
  <trkpt lat="46.1826278" lon="13.9895613">  <ele>1131.496</ele>  <time>2017-12-03T09:35:41.010Z</time>  </trkpt>
  <trkpt lat="46.1826278" lon="13.9895613">  <ele>1130.897</ele>  <time>2017-12-03T09:35:58.010Z</time>  </trkpt>
  <trkpt lat="46.1826278" lon="13.9895613">  <ele>1130.630</ele>  <time>2017-12-03T09:37:46.183Z</time>  </trkpt>
  <trkpt lat="46.1828047" lon="13.9894241">  <ele>1130.418</ele>  <time>2017-12-03T09:38:29.161Z</time>  </trkpt>
  <trkpt lat="46.1827549" lon="13.9893101">  <ele>1131.611</ele>  <time>2017-12-03T09:38:45.125Z</time>  </trkpt>
  <trkpt lat="46.1827012" lon="13.9891924">  <ele>1135.192</ele>  <time>2017-12-03T09:38:56.626Z</time>  </trkpt>
  <trkpt lat="46.1826156" lon="13.9891149">  <ele>1139.314</ele>  <time>2017-12-03T09:39:07.645Z</time>  </trkpt>
  <trkpt lat="46.1825658" lon="13.9890057">  <ele>1141.961</ele>  <time>2017-12-03T09:39:18.015Z</time>  </trkpt>
  <trkpt lat="46.1824833" lon="13.9889423">  <ele>1143.455</ele>  <time>2017-12-03T09:39:28.334Z</time>  </trkpt>
  <trkpt lat="46.1825309" lon="13.9888154">  <ele>1144.843</ele>  <time>2017-12-03T09:39:41.412Z</time>  </trkpt>
  <trkpt lat="46.1825997" lon="13.9887235">  <ele>1146.589</ele>  <time>2017-12-03T09:39:52.401Z</time>  </trkpt>
  <trkpt lat="46.1826812" lon="13.9886244">  <ele>1148.704</ele>  <time>2017-12-03T09:40:02.793Z</time>  </trkpt>
  <trkpt lat="46.1826408" lon="13.9885045">  <ele>1151.330</ele>  <time>2017-12-03T09:40:11.429Z</time>  </trkpt>
  <trkpt lat="46.1825467" lon="13.9884238">  <ele>1153.905</ele>  <time>2017-12-03T09:40:25.406Z</time>  </trkpt>
  <trkpt lat="46.1826042" lon="13.9883237">  <ele>1156.215</ele>  <time>2017-12-03T09:40:38.009Z</time>  </trkpt>
  <trkpt lat="46.1826042" lon="13.9883237">  <ele>1158.597</ele>  <time>2017-12-03T09:40:39.009Z</time>  </trkpt>
  <trkpt lat="46.1826042" lon="13.9883237">  <ele>1159.974</ele>  <time>2017-12-03T09:40:43.676Z</time>  </trkpt>
  <trkpt lat="46.1826031" lon="13.9881908">  <ele>1158.110</ele>  <time>2017-12-03T09:41:04.924Z</time>  </trkpt>
  <trkpt lat="46.1826887" lon="13.9881379">  <ele>1157.886</ele>  <time>2017-12-03T09:41:20.756Z</time>  </trkpt>
  <trkpt lat="46.1826985" lon="13.9880060">  <ele>1159.355</ele>  <time>2017-12-03T09:41:39.410Z</time>  </trkpt>
  <trkpt lat="46.1826954" lon="13.9878761">  <ele>1161.409</ele>  <time>2017-12-03T09:41:59.409Z</time>  </trkpt>
  <trkpt lat="46.1827048" lon="13.9877424">  <ele>1162.689</ele>  <time>2017-12-03T09:42:22.007Z</time>  </trkpt>
  <trkpt lat="46.1827048" lon="13.9877424">  <ele>1162.879</ele>  <time>2017-12-03T09:42:24.007Z</time>  </trkpt>
  <trkpt lat="46.1827048" lon="13.9877424">  <ele>1162.333</ele>  <time>2017-12-03T09:42:27.360Z</time>  </trkpt>
  <trkpt lat="46.1827432" lon="13.9874779">  <ele>1161.729</ele>  <time>2017-12-03T09:43:11.006Z</time>  </trkpt>
  <trkpt lat="46.1827432" lon="13.9874779">  <ele>1161.457</ele>  <time>2017-12-03T09:43:15.006Z</time>  </trkpt>
  <trkpt lat="46.1827432" lon="13.9874779">  <ele>1161.265</ele>  <time>2017-12-03T09:43:26.755Z</time>  </trkpt>
  <trkpt lat="46.1827360" lon="13.9872434">  <ele>1160.904</ele>  <time>2017-12-03T09:43:49.006Z</time>  </trkpt>
  <trkpt lat="46.1827360" lon="13.9872434">  <ele>1160.491</ele>  <time>2017-12-03T09:43:51.005Z</time>  </trkpt>
  <trkpt lat="46.1827360" lon="13.9872434">  <ele>1160.137</ele>  <time>2017-12-03T09:44:14.777Z</time>  </trkpt>
  <trkpt lat="46.1827866" lon="13.9869342">  <ele>1159.809</ele>  <time>2017-12-03T09:44:47.004Z</time>  </trkpt>
  <trkpt lat="46.1827866" lon="13.9869342">  <ele>1159.531</ele>  <time>2017-12-03T09:44:51.004Z</time>  </trkpt>
  <trkpt lat="46.1827866" lon="13.9869342">  <ele>1159.214</ele>  <time>2017-12-03T09:44:51.104Z</time>  </trkpt>
  <trkpt lat="46.1827866" lon="13.9869342">  <ele>1158.388</ele>  <time>2017-12-03T09:45:07.004Z</time>  </trkpt>
  <trkpt lat="46.1827866" lon="13.9869342">  <ele>1158.070</ele>  <time>2017-12-03T09:45:07.104Z</time>  </trkpt>
  <trkpt lat="46.1829887" lon="13.9866859">  <ele>1157.753</ele>  <time>2017-12-03T09:45:45.009Z</time>  </trkpt>
  <trkpt lat="46.1829887" lon="13.9866859">  <ele>1157.448</ele>  <time>2017-12-03T09:45:49.008Z</time>  </trkpt>
  <trkpt lat="46.1829887" lon="13.9866859">  <ele>1157.119</ele>  <time>2017-12-03T09:45:52.635Z</time>  </trkpt>
  <trkpt lat="46.1829587" lon="13.9864202">  <ele>1156.741</ele>  <time>2017-12-03T09:46:30.008Z</time>  </trkpt>
  <trkpt lat="46.1829587" lon="13.9864202">  <ele>1156.420</ele>  <time>2017-12-03T09:46:34.008Z</time>  </trkpt>
  <trkpt lat="46.1829587" lon="13.9864202">  <ele>1156.111</ele>  <time>2017-12-03T09:46:34.215Z</time>  </trkpt>
  <trkpt lat="46.1828762" lon="13.9863608">  <ele>1155.304</ele>  <time>2017-12-03T09:47:03.643Z</time>  </trkpt>
  <trkpt lat="46.1828023" lon="13.9862847">  <ele>1162.376</ele>  <time>2017-12-03T09:47:20.194Z</time>  </trkpt>
  <trkpt lat="46.1827322" lon="13.9861901">  <ele>1181.691</ele>  <time>2017-12-03T09:47:35.012Z</time>  </trkpt>
  <trkpt lat="46.1826644" lon="13.9860932">  <ele>1202.404</ele>  <time>2017-12-03T09:47:49.006Z</time>  </trkpt>
  <trkpt lat="46.1826644" lon="13.9860932">  <ele>1213.277</ele>  <time>2017-12-03T09:48:02.006Z</time>  </trkpt>
  <trkpt lat="46.1826644" lon="13.9860932">  <ele>1215.748</ele>  <time>2017-12-03T09:48:30.566Z</time>  </trkpt>
  <trkpt lat="46.1827767" lon="13.9858745">  <ele>1214.432</ele>  <time>2017-12-03T09:48:53.005Z</time>  </trkpt>
  <trkpt lat="46.1827767" lon="13.9858745">  <ele>1212.857</ele>  <time>2017-12-03T09:49:05.004Z</time>  </trkpt>
  <trkpt lat="46.1827767" lon="13.9858745">  <ele>1212.343</ele>  <time>2017-12-03T09:49:05.104Z</time>  </trkpt>
  <trkpt lat="46.1827767" lon="13.9858745">  <ele>1212.094</ele>  <time>2017-12-03T09:49:24.004Z</time>  </trkpt>
  <trkpt lat="46.1827767" lon="13.9858745">  <ele>1211.615</ele>  <time>2017-12-03T09:49:24.104Z</time>  </trkpt>
  <trkpt lat="46.1829597" lon="13.9856601">  <ele>1211.196</ele>  <time>2017-12-03T09:49:57.003Z</time>  </trkpt>
  <trkpt lat="46.1829597" lon="13.9856601">  <ele>1210.912</ele>  <time>2017-12-03T09:50:16.003Z</time>  </trkpt>
  <trkpt lat="46.1829597" lon="13.9856601">  <ele>1210.629</ele>  <time>2017-12-03T09:50:29.186Z</time>  </trkpt>
  <trkpt lat="46.1829639" lon="13.9855297">  <ele>1209.748</ele>  <time>2017-12-03T09:50:56.442Z</time>  </trkpt>
  <trkpt lat="46.1829090" lon="13.9854008">  <ele>1213.740</ele>  <time>2017-12-03T09:51:20.760Z</time>  </trkpt>
  <trkpt lat="46.1828133" lon="13.9853436">  <ele>1225.278</ele>  <time>2017-12-03T09:51:49.803Z</time>  </trkpt>
  <trkpt lat="46.1827323" lon="13.9852624">  <ele>1238.495</ele>  <time>2017-12-03T09:52:12.038Z</time>  </trkpt>
  <trkpt lat="46.1826587" lon="13.9851758">  <ele>1246.838</ele>  <time>2017-12-03T09:52:26.632Z</time>  </trkpt>
  <trkpt lat="46.1825775" lon="13.9850827">  <ele>1250.927</ele>  <time>2017-12-03T09:52:42.000Z</time>  </trkpt>
  <trkpt lat="46.1825775" lon="13.9850827">  <ele>1252.402</ele>  <time>2017-12-03T09:53:05.000Z</time>  </trkpt>
  <trkpt lat="46.1825775" lon="13.9850827">  <ele>1252.092</ele>  <time>2017-12-03T09:54:00.532Z</time>  </trkpt>
  <trkpt lat="46.1825108" lon="13.9848729">  <ele>1251.247</ele>  <time>2017-12-03T09:54:22.998Z</time>  </trkpt>
  <trkpt lat="46.1825108" lon="13.9848729">  <ele>1250.853</ele>  <time>2017-12-03T09:54:38.998Z</time>  </trkpt>
  <trkpt lat="46.1825108" lon="13.9848729">  <ele>1250.639</ele>  <time>2017-12-03T09:54:39.098Z</time>  </trkpt>
  <trkpt lat="46.1827371" lon="13.9847651">  <ele>1250.294</ele>  <time>2017-12-03T09:55:32.226Z</time>  </trkpt>
  <trkpt lat="46.1828465" lon="13.9846952">  <ele>1251.401</ele>  <time>2017-12-03T09:55:42.294Z</time>  </trkpt>
  <trkpt lat="46.1829370" lon="13.9846508">  <ele>1255.052</ele>  <time>2017-12-03T09:55:51.189Z</time>  </trkpt>
  <trkpt lat="46.1830112" lon="13.9845717">  <ele>1259.444</ele>  <time>2017-12-03T09:55:59.996Z</time>  </trkpt>
  <trkpt lat="46.1830112" lon="13.9845717">  <ele>1262.610</ele>  <time>2017-12-03T09:56:02.003Z</time>  </trkpt>
  <trkpt lat="46.1830112" lon="13.9845717">  <ele>1263.838</ele>  <time>2017-12-03T09:56:28.189Z</time>  </trkpt>
  <trkpt lat="46.1831919" lon="13.9843901">  <ele>1263.145</ele>  <time>2017-12-03T09:56:53.002Z</time>  </trkpt>
  <trkpt lat="46.1831919" lon="13.9843901">  <ele>1261.962</ele>  <time>2017-12-03T09:57:09.002Z</time>  </trkpt>
  <trkpt lat="46.1831919" lon="13.9843901">  <ele>1261.407</ele>  <time>2017-12-03T09:57:55.079Z</time>  </trkpt>
  <trkpt lat="46.1833631" lon="13.9841529">  <ele>1261.401</ele>  <time>2017-12-03T09:58:21.001Z</time>  </trkpt>
  <trkpt lat="46.1833631" lon="13.9841529">  <ele>1261.391</ele>  <time>2017-12-03T09:58:31.001Z</time>  </trkpt>
  <trkpt lat="46.1833631" lon="13.9841529">  <ele>1261.004</ele>  <time>2017-12-03T09:58:31.101Z</time>  </trkpt>
  <trkpt lat="46.1833631" lon="13.9841529">  <ele>1259.990</ele>  <time>2017-12-03T09:58:51.000Z</time>  </trkpt>
  <trkpt lat="46.1833631" lon="13.9841529">  <ele>1259.708</ele>  <time>2017-12-03T09:59:02.918Z</time>  </trkpt>
  <trkpt lat="46.1833013" lon="13.9838593">  <ele>1259.364</ele>  <time>2017-12-03T09:59:48.999Z</time>  </trkpt>
  <trkpt lat="46.1833013" lon="13.9838593">  <ele>1258.991</ele>  <time>2017-12-03T09:59:52.999Z</time>  </trkpt>
  <trkpt lat="46.1833013" lon="13.9838593">  <ele>1258.616</ele>  <time>2017-12-03T09:59:53.099Z</time>  </trkpt>
  <trkpt lat="46.1831464" lon="13.9837224">  <ele>1258.222</ele>  <time>2017-12-03T10:00:39.998Z</time>  </trkpt>
  <trkpt lat="46.1831464" lon="13.9837224">  <ele>1257.894</ele>  <time>2017-12-03T10:00:43.998Z</time>  </trkpt>
  <trkpt lat="46.1831464" lon="13.9837224">  <ele>1257.559</ele>  <time>2017-12-03T10:00:56.998Z</time>  </trkpt>
  <trkpt lat="46.1831464" lon="13.9837224">  <ele>1257.106</ele>  <time>2017-12-03T10:00:57.098Z</time>  </trkpt>
  <trkpt lat="46.1831552" lon="13.9835425">  <ele>1256.260</ele>  <time>2017-12-03T10:01:37.997Z</time>  </trkpt>
  <trkpt lat="46.1831552" lon="13.9835425">  <ele>1256.077</ele>  <time>2017-12-03T10:01:46.997Z</time>  </trkpt>
  <trkpt lat="46.1831552" lon="13.9835425">  <ele>1255.864</ele>  <time>2017-12-03T10:01:47.097Z</time>  </trkpt>
  <trkpt lat="46.1832935" lon="13.9833856">  <ele>1255.424</ele>  <time>2017-12-03T10:02:06.996Z</time>  </trkpt>
  <trkpt lat="46.1832935" lon="13.9833856">  <ele>1254.948</ele>  <time>2017-12-03T10:02:15.996Z</time>  </trkpt>
  <trkpt lat="46.1832935" lon="13.9833856">  <ele>1254.579</ele>  <time>2017-12-03T10:02:16.096Z</time>  </trkpt>
  <trkpt lat="46.1833821" lon="13.9833388">  <ele>1254.245</ele>  <time>2017-12-03T10:02:24.996Z</time>  </trkpt>
  <trkpt lat="46.1833821" lon="13.9833388">  <ele>1253.942</ele>  <time>2017-12-03T10:02:32.996Z</time>  </trkpt>
  <trkpt lat="46.1833821" lon="13.9833388">  <ele>1253.591</ele>  <time>2017-12-03T10:02:35.987Z</time>  </trkpt>
  <trkpt lat="46.1835892" lon="13.9832562">  <ele>1253.167</ele>  <time>2017-12-03T10:03:28.000Z</time>  </trkpt>
  <trkpt lat="46.1835892" lon="13.9832562">  <ele>1252.810</ele>  <time>2017-12-03T10:03:32.000Z</time>  </trkpt>
  <trkpt lat="46.1835892" lon="13.9832562">  <ele>1252.477</ele>  <time>2017-12-03T10:03:33.134Z</time>  </trkpt>
  <trkpt lat="46.1836331" lon="13.9831416">  <ele>1252.089</ele>  <time>2017-12-03T10:04:28.999Z</time>  </trkpt>
  <trkpt lat="46.1836331" lon="13.9831416">  <ele>1251.735</ele>  <time>2017-12-03T10:04:37.998Z</time>  </trkpt>
  <trkpt lat="46.1836331" lon="13.9831416">  <ele>1251.389</ele>  <time>2017-12-03T10:04:38.098Z</time>  </trkpt>
  <trkpt lat="46.1834554" lon="13.9828225">  <ele>1250.995</ele>  <time>2017-12-03T10:05:45.997Z</time>  </trkpt>
  <trkpt lat="46.1834554" lon="13.9828225">  <ele>1250.649</ele>  <time>2017-12-03T10:05:49.997Z</time>  </trkpt>
  <trkpt lat="46.1834554" lon="13.9828225">  <ele>1250.308</ele>  <time>2017-12-03T10:06:25.196Z</time>  </trkpt>
  <trkpt lat="46.1835147" lon="13.9826533">  <ele>1249.912</ele>  <time>2017-12-03T10:07:23.995Z</time>  </trkpt>
  <trkpt lat="46.1835147" lon="13.9826533">  <ele>1249.562</ele>  <time>2017-12-03T10:07:42.995Z</time>  </trkpt>
  <trkpt lat="46.1835147" lon="13.9826533">  <ele>1249.220</ele>  <time>2017-12-03T10:07:49.836Z</time>  </trkpt>
  <trkpt lat="46.1837012" lon="13.9825183">  <ele>1248.827</ele>  <time>2017-12-03T10:08:31.994Z</time>  </trkpt>
  <trkpt lat="46.1837012" lon="13.9825183">  <ele>1248.479</ele>  <time>2017-12-03T10:08:36.994Z</time>  </trkpt>
  <trkpt lat="46.1837012" lon="13.9825183">  <ele>1248.137</ele>  <time>2017-12-03T10:08:37.094Z</time>  </trkpt>
  <trkpt lat="46.1837012" lon="13.9825183">  <ele>1247.269</ele>  <time>2017-12-03T10:08:50.993Z</time>  </trkpt>
  <trkpt lat="46.1837012" lon="13.9825183">  <ele>1246.919</ele>  <time>2017-12-03T10:09:04.787Z</time>  </trkpt>
  <trkpt lat="46.1837135" lon="13.9823857">  <ele>1246.097</ele>  <time>2017-12-03T10:09:27.993Z</time>  </trkpt>
  <trkpt lat="46.1837135" lon="13.9823857">  <ele>1245.838</ele>  <time>2017-12-03T10:09:33.993Z</time>  </trkpt>
  <trkpt lat="46.1837135" lon="13.9823857">  <ele>1245.600</ele>  <time>2017-12-03T10:09:34.093Z</time>  </trkpt>
  <trkpt lat="46.1835228" lon="13.9822278">  <ele>1245.195</ele>  <time>2017-12-03T10:10:40.991Z</time>  </trkpt>
  <trkpt lat="46.1835228" lon="13.9822278">  <ele>1244.760</ele>  <time>2017-12-03T10:10:44.991Z</time>  </trkpt>
  <trkpt lat="46.1835228" lon="13.9822278">  <ele>1244.394</ele>  <time>2017-12-03T10:10:45.091Z</time>  </trkpt>
  <trkpt lat="46.1833367" lon="13.9820479">  <ele>1244.042</ele>  <time>2017-12-03T10:11:42.990Z</time>  </trkpt>
  <trkpt lat="46.1833367" lon="13.9820479">  <ele>1243.732</ele>  <time>2017-12-03T10:11:45.996Z</time>  </trkpt>
  <trkpt lat="46.1833367" lon="13.9820479">  <ele>1243.389</ele>  <time>2017-12-03T10:12:24.654Z</time>  </trkpt>
  <trkpt lat="46.1832830" lon="13.9817944">  <ele>1242.976</ele>  <time>2017-12-03T10:13:06.995Z</time>  </trkpt>
  <trkpt lat="46.1832830" lon="13.9817944">  <ele>1242.620</ele>  <time>2017-12-03T10:13:19.994Z</time>  </trkpt>
  <trkpt lat="46.1832830" lon="13.9817944">  <ele>1242.287</ele>  <time>2017-12-03T10:13:20.094Z</time>  </trkpt>
  <trkpt lat="46.1830852" lon="13.9815478">  <ele>1241.902</ele>  <time>2017-12-03T10:14:37.993Z</time>  </trkpt>
  <trkpt lat="46.1830852" lon="13.9815478">  <ele>1241.553</ele>  <time>2017-12-03T10:14:41.993Z</time>  </trkpt>
  <trkpt lat="46.1830852" lon="13.9815478">  <ele>1241.210</ele>  <time>2017-12-03T10:15:42.839Z</time>  </trkpt>
  <trkpt lat="46.1832350" lon="13.9813343">  <ele>1240.819</ele>  <time>2017-12-03T10:16:46.990Z</time>  </trkpt>
  <trkpt lat="46.1832350" lon="13.9813343">  <ele>1240.475</ele>  <time>2017-12-03T10:16:50.990Z</time>  </trkpt>
  <trkpt lat="46.1832350" lon="13.9813343">  <ele>1240.137</ele>  <time>2017-12-03T10:17:16.030Z</time>  </trkpt>
  <trkpt lat="46.1834373" lon="13.9812813">  <ele>1239.744</ele>  <time>2017-12-03T10:18:29.988Z</time>  </trkpt>
  <trkpt lat="46.1834373" lon="13.9812813">  <ele>1239.397</ele>  <time>2017-12-03T10:18:33.988Z</time>  </trkpt>
  <trkpt lat="46.1834373" lon="13.9812813">  <ele>1239.058</ele>  <time>2017-12-03T10:18:34.088Z</time>  </trkpt>
  <trkpt lat="46.1834193" lon="13.9810954">  <ele>1238.668</ele>  <time>2017-12-03T10:21:59.989Z</time>  </trkpt>
  <trkpt lat="46.1834193" lon="13.9810954">  <ele>1238.322</ele>  <time>2017-12-03T10:22:07.989Z</time>  </trkpt>
  <trkpt lat="46.1834193" lon="13.9810954">  <ele>1237.984</ele>  <time>2017-12-03T10:22:08.089Z</time>  </trkpt>
  <trkpt lat="46.1833470" lon="13.9807640">  <ele>1237.593</ele>  <time>2017-12-03T10:24:37.986Z</time>  </trkpt>
  <trkpt lat="46.1833470" lon="13.9807640">  <ele>1237.247</ele>  <time>2017-12-03T10:24:41.986Z</time>  </trkpt>
  <trkpt lat="46.1833470" lon="13.9807640">  <ele>1236.909</ele>  <time>2017-12-03T10:24:42.086Z</time>  </trkpt>
  <trkpt lat="46.1833938" lon="13.9805133">  <ele>1236.519</ele>  <time>2017-12-03T10:27:17.988Z</time>  </trkpt>
  <trkpt lat="46.1833938" lon="13.9805133">  <ele>1236.174</ele>  <time>2017-12-03T10:27:21.988Z</time>  </trkpt>
  <trkpt lat="46.1833938" lon="13.9805133">  <ele>1235.836</ele>  <time>2017-12-03T10:27:37.988Z</time>  </trkpt>
  <trkpt lat="46.1833938" lon="13.9805133">  <ele>1235.398</ele>  <time>2017-12-03T10:27:38.088Z</time>  </trkpt>
  <trkpt lat="46.1832552" lon="13.9803892">  <ele>1234.977</ele>  <time>2017-12-03T10:28:17.122Z</time>  </trkpt>
  <trkpt lat="46.1831664" lon="13.9803218">  <ele>1265.721</ele>  <time>2017-12-03T10:28:35.986Z</time>  </trkpt>
  <trkpt lat="46.1831664" lon="13.9803218">  <ele>1346.362</ele>  <time>2017-12-03T10:28:42.986Z</time>  </trkpt>
  <trkpt lat="46.1831664" lon="13.9803218">  <ele>1413.468</ele>  <time>2017-12-03T10:28:43.086Z</time>  </trkpt>
  <trkpt lat="46.1830482" lon="13.9802962">  <ele>1411.757</ele>  <time>2017-12-03T10:29:03.213Z</time>  </trkpt>
  <trkpt lat="46.1829708" lon="13.9802094">  <ele>1391.588</ele>  <time>2017-12-03T10:29:16.986Z</time>  </trkpt>
  <trkpt lat="46.1829708" lon="13.9802094">  <ele>1406.543</ele>  <time>2017-12-03T10:29:18.986Z</time>  </trkpt>
  <trkpt lat="46.1829708" lon="13.9802094">  <ele>1431.851</ele>  <time>2017-12-03T10:29:23.289Z</time>  </trkpt>
  <trkpt lat="46.1828809" lon="13.9801825">  <ele>1417.907</ele>  <time>2017-12-03T10:29:49.639Z</time>  </trkpt>
  <trkpt lat="46.1827647" lon="13.9801348">  <ele>1415.314</ele>  <time>2017-12-03T10:30:02.985Z</time>  </trkpt>
  <trkpt lat="46.1827647" lon="13.9801348">  <ele>1433.150</ele>  <time>2017-12-03T10:30:14.984Z</time>  </trkpt>
  <trkpt lat="46.1827647" lon="13.9801348">  <ele>1450.978</ele>  <time>2017-12-03T10:30:15.084Z</time>  </trkpt>
  <trkpt lat="46.1825877" lon="13.9800303">  <ele>1450.453</ele>  <time>2017-12-03T10:30:32.984Z</time>  </trkpt>
  <trkpt lat="46.1825877" lon="13.9800303">  <ele>1442.594</ele>  <time>2017-12-03T10:30:54.984Z</time>  </trkpt>
  <trkpt lat="46.1825877" lon="13.9800303">  <ele>1441.263</ele>  <time>2017-12-03T10:30:55.084Z</time>  </trkpt>
  <trkpt lat="46.1823615" lon="13.9798195">  <ele>1444.892</ele>  <time>2017-12-03T10:31:59.982Z</time>  </trkpt>
  <trkpt lat="46.1823615" lon="13.9798195">  <ele>1447.232</ele>  <time>2017-12-03T10:32:03.982Z</time>  </trkpt>
  <trkpt lat="46.1823615" lon="13.9798195">  <ele>1446.857</ele>  <time>2017-12-03T10:32:04.082Z</time>  </trkpt>
  <trkpt lat="46.1822865" lon="13.9797163">  <ele>1445.739</ele>  <time>2017-12-03T10:32:24.982Z</time>  </trkpt>
  <trkpt lat="46.1822865" lon="13.9797163">  <ele>1445.329</ele>  <time>2017-12-03T10:32:33.982Z</time>  </trkpt>
  <trkpt lat="46.1822865" lon="13.9797163">  <ele>1445.132</ele>  <time>2017-12-03T10:32:34.082Z</time>  </trkpt>
  <trkpt lat="46.1821366" lon="13.9795662">  <ele>1444.720</ele>  <time>2017-12-03T10:33:10.981Z</time>  </trkpt>
  <trkpt lat="46.1821366" lon="13.9795662">  <ele>1444.202</ele>  <time>2017-12-03T10:33:16.981Z</time>  </trkpt>
  <trkpt lat="46.1821366" lon="13.9795662">  <ele>1443.741</ele>  <time>2017-12-03T10:33:17.081Z</time>  </trkpt>
  <trkpt lat="46.1820016" lon="13.9793206">  <ele>1443.330</ele>  <time>2017-12-03T10:33:51.985Z</time>  </trkpt>
  <trkpt lat="46.1820016" lon="13.9793206">  <ele>1442.996</ele>  <time>2017-12-03T10:33:55.985Z</time>  </trkpt>
  <trkpt lat="46.1820016" lon="13.9793206">  <ele>1442.609</ele>  <time>2017-12-03T10:33:56.085Z</time>  </trkpt>
  <trkpt lat="46.1818442" lon="13.9791645">  <ele>1442.118</ele>  <time>2017-12-03T10:35:28.983Z</time>  </trkpt>
  <trkpt lat="46.1818442" lon="13.9791645">  <ele>1441.693</ele>  <time>2017-12-03T10:35:32.983Z</time>  </trkpt>
  <trkpt lat="46.1818442" lon="13.9791645">  <ele>1441.306</ele>  <time>2017-12-03T10:35:33.083Z</time>  </trkpt>
  <trkpt lat="46.1817696" lon="13.9790550">  <ele>1440.866</ele>  <time>2017-12-03T10:35:47.983Z</time>  </trkpt>
  <trkpt lat="46.1817696" lon="13.9790550">  <ele>1440.465</ele>  <time>2017-12-03T10:35:55.983Z</time>  </trkpt>
  <trkpt lat="46.1817696" lon="13.9790550">  <ele>1440.065</ele>  <time>2017-12-03T10:35:56.083Z</time>  </trkpt>
  <trkpt lat="46.1817069" lon="13.9789618">  <ele>1439.609</ele>  <time>2017-12-03T10:36:16.982Z</time>  </trkpt>
  <trkpt lat="46.1817069" lon="13.9789618">  <ele>1439.210</ele>  <time>2017-12-03T10:36:31.982Z</time>  </trkpt>
  <trkpt lat="46.1817069" lon="13.9789618">  <ele>1438.818</ele>  <time>2017-12-03T10:36:32.082Z</time>  </trkpt>
  <trkpt lat="46.1814863" lon="13.9787671">  <ele>1438.364</ele>  <time>2017-12-03T10:36:53.982Z</time>  </trkpt>
  <trkpt lat="46.1814863" lon="13.9787671">  <ele>1437.960</ele>  <time>2017-12-03T10:37:06.981Z</time>  </trkpt>
  <trkpt lat="46.1814863" lon="13.9787671">  <ele>1437.566</ele>  <time>2017-12-03T10:37:24.948Z</time>  </trkpt>
  <trkpt lat="46.1813197" lon="13.9785650">  <ele>1437.114</ele>  <time>2017-12-03T10:38:23.949Z</time>  </trkpt>
  <trkpt lat="46.1812430" lon="13.9784810">  <ele>1447.191</ele>  <time>2017-12-03T10:38:37.980Z</time>  </trkpt>
  <trkpt lat="46.1812430" lon="13.9784810">  <ele>1474.205</ele>  <time>2017-12-03T10:38:45.979Z</time>  </trkpt>
  <trkpt lat="46.1812430" lon="13.9784810">  <ele>1496.600</ele>  <time>2017-12-03T10:38:46.079Z</time>  </trkpt>
  <trkpt lat="46.1810884" lon="13.9782505">  <ele>1495.611</ele>  <time>2017-12-03T10:39:25.979Z</time>  </trkpt>
  <trkpt lat="46.1810884" lon="13.9782505">  <ele>1485.974</ele>  <time>2017-12-03T10:39:29.979Z</time>  </trkpt>
  <trkpt lat="46.1810884" lon="13.9782505">  <ele>1484.489</ele>  <time>2017-12-03T10:39:37.801Z</time>  </trkpt>
  <trkpt lat="46.1809662" lon="13.9780338">  <ele>1489.076</ele>  <time>2017-12-03T10:40:26.184Z</time>  </trkpt>
  <trkpt lat="46.1808973" lon="13.9779425">  <ele>1497.604</ele>  <time>2017-12-03T10:40:40.734Z</time>  </trkpt>
  <trkpt lat="46.1808271" lon="13.9778496">  <ele>1511.620</ele>  <time>2017-12-03T10:40:52.257Z</time>  </trkpt>
  <trkpt lat="46.1807486" lon="13.9777785">  <ele>1525.615</ele>  <time>2017-12-03T10:41:00.982Z</time>  </trkpt>
  <trkpt lat="46.1807486" lon="13.9777785">  <ele>1533.721</ele>  <time>2017-12-03T10:41:09.982Z</time>  </trkpt>
  <trkpt lat="46.1807486" lon="13.9777785">  <ele>1536.152</ele>  <time>2017-12-03T10:41:10.082Z</time>  </trkpt>
  <trkpt lat="46.1806293" lon="13.9776446">  <ele>1534.981</ele>  <time>2017-12-03T10:41:44.582Z</time>  </trkpt>
  <trkpt lat="46.1805342" lon="13.9775857">  <ele>1533.489</ele>  <time>2017-12-03T10:41:53.981Z</time>  </trkpt>
  <trkpt lat="46.1805342" lon="13.9775857">  <ele>1533.540</ele>  <time>2017-12-03T10:42:00.981Z</time>  </trkpt>
  <trkpt lat="46.1805342" lon="13.9775857">  <ele>1533.980</ele>  <time>2017-12-03T10:42:03.399Z</time>  </trkpt>
  <trkpt lat="46.1803451" lon="13.9774694">  <ele>1533.409</ele>  <time>2017-12-03T10:42:28.980Z</time>  </trkpt>
  <trkpt lat="46.1803451" lon="13.9774694">  <ele>1532.376</ele>  <time>2017-12-03T10:42:39.980Z</time>  </trkpt>
  <trkpt lat="46.1803451" lon="13.9774694">  <ele>1531.744</ele>  <time>2017-12-03T10:43:07.534Z</time>  </trkpt>
  <trkpt lat="46.1802055" lon="13.9773181">  <ele>1531.529</ele>  <time>2017-12-03T10:44:51.005Z</time>  </trkpt>
  <trkpt lat="46.1801379" lon="13.9772248">  <ele>1534.225</ele>  <time>2017-12-03T10:45:09.828Z</time>  </trkpt>
  <trkpt lat="46.1800600" lon="13.9770907">  <ele>1541.837</ele>  <time>2017-12-03T10:45:35.744Z</time>  </trkpt>
  <trkpt lat="46.1800344" lon="13.9769626">  <ele>1550.536</ele>  <time>2017-12-03T10:46:00.976Z</time>  </trkpt>
  <trkpt lat="46.1800344" lon="13.9769626">  <ele>1555.564</ele>  <time>2017-12-03T10:46:03.976Z</time>  </trkpt>
  <trkpt lat="46.1800344" lon="13.9769626">  <ele>1556.702</ele>  <time>2017-12-03T10:46:27.895Z</time>  </trkpt>
  <trkpt lat="46.1799484" lon="13.9768530">  <ele>1555.697</ele>  <time>2017-12-03T10:46:44.860Z</time>  </trkpt>
  <trkpt lat="46.1798692" lon="13.9767898">  <ele>1556.431</ele>  <time>2017-12-03T10:46:56.093Z</time>  </trkpt>
  <trkpt lat="46.1797902" lon="13.9766818">  <ele>1561.111</ele>  <time>2017-12-03T10:47:16.467Z</time>  </trkpt>
  <trkpt lat="46.1797107" lon="13.9766106">  <ele>1567.527</ele>  <time>2017-12-03T10:47:36.974Z</time>  </trkpt>
  <trkpt lat="46.1797107" lon="13.9766106">  <ele>1572.853</ele>  <time>2017-12-03T10:47:42.974Z</time>  </trkpt>
  <trkpt lat="46.1797107" lon="13.9766106">  <ele>1575.321</ele>  <time>2017-12-03T10:47:56.248Z</time>  </trkpt>
  <trkpt lat="46.1796186" lon="13.9765516">  <ele>1574.416</ele>  <time>2017-12-03T10:48:20.854Z</time>  </trkpt>
  <trkpt lat="46.1795525" lon="13.9764604">  <ele>1573.493</ele>  <time>2017-12-03T10:48:32.211Z</time>  </trkpt>
  <trkpt lat="46.1794588" lon="13.9764368">  <ele>1575.179</ele>  <time>2017-12-03T10:48:44.463Z</time>  </trkpt>
  <trkpt lat="46.1793754" lon="13.9763723">  <ele>1578.444</ele>  <time>2017-12-03T10:48:59.719Z</time>  </trkpt>
  <trkpt lat="46.1792803" lon="13.9763349">  <ele>1581.588</ele>  <time>2017-12-03T10:49:16.354Z</time>  </trkpt>
  <trkpt lat="46.1791915" lon="13.9762780">  <ele>1584.539</ele>  <time>2017-12-03T10:49:28.615Z</time>  </trkpt>
  <trkpt lat="46.1790965" lon="13.9762587">  <ele>1587.484</ele>  <time>2017-12-03T10:49:39.934Z</time>  </trkpt>
  <trkpt lat="46.1790095" lon="13.9762164">  <ele>1590.008</ele>  <time>2017-12-03T10:49:52.430Z</time>  </trkpt>
  <trkpt lat="46.1789278" lon="13.9761381">  <ele>1591.678</ele>  <time>2017-12-03T10:50:08.315Z</time>  </trkpt>
  <trkpt lat="46.1788416" lon="13.9760784">  <ele>1592.863</ele>  <time>2017-12-03T10:50:25.673Z</time>  </trkpt>
  <trkpt lat="46.1787546" lon="13.9760456">  <ele>1594.362</ele>  <time>2017-12-03T10:50:39.350Z</time>  </trkpt>
  <trkpt lat="46.1786673" lon="13.9759924">  <ele>1596.459</ele>  <time>2017-12-03T10:50:52.053Z</time>  </trkpt>
  <trkpt lat="46.1785806" lon="13.9759315">  <ele>1598.257</ele>  <time>2017-12-03T10:51:06.157Z</time>  </trkpt>
  <trkpt lat="46.1785211" lon="13.9758222">  <ele>1599.049</ele>  <time>2017-12-03T10:51:22.430Z</time>  </trkpt>
  <trkpt lat="46.1784452" lon="13.9757392">  <ele>1599.865</ele>  <time>2017-12-03T10:51:37.976Z</time>  </trkpt>
  <trkpt lat="46.1784452" lon="13.9757392">  <ele>1601.598</ele>  <time>2017-12-03T10:51:47.976Z</time>  </trkpt>
  <trkpt lat="46.1784452" lon="13.9757392">  <ele>1602.800</ele>  <time>2017-12-03T10:51:48.076Z</time>  </trkpt>
  <trkpt lat="46.1783540" lon="13.9757025">  <ele>1602.113</ele>  <time>2017-12-03T10:52:02.940Z</time>  </trkpt>
  <trkpt lat="46.1782605" lon="13.9756509">  <ele>1602.430</ele>  <time>2017-12-03T10:52:15.975Z</time>  </trkpt>
  <trkpt lat="46.1782605" lon="13.9756509">  <ele>1606.142</ele>  <time>2017-12-03T10:52:18.975Z</time>  </trkpt>
  <trkpt lat="46.1782605" lon="13.9756509">  <ele>1609.472</ele>  <time>2017-12-03T10:52:34.945Z</time>  </trkpt>
  <trkpt lat="46.1781379" lon="13.9755544">  <ele>1608.803</ele>  <time>2017-12-03T10:53:13.086Z</time>  </trkpt>
  <trkpt lat="46.1780803" lon="13.9754436">  <ele>1607.541</ele>  <time>2017-12-03T10:53:33.075Z</time>  </trkpt>
  <trkpt lat="46.1780313" lon="13.9753307">  <ele>1609.563</ele>  <time>2017-12-03T10:53:46.307Z</time>  </trkpt>
  <trkpt lat="46.1779630" lon="13.9752337">  <ele>1613.396</ele>  <time>2017-12-03T10:54:02.357Z</time>  </trkpt>
  <trkpt lat="46.1778951" lon="13.9751483">  <ele>1616.319</ele>  <time>2017-12-03T10:54:17.774Z</time>  </trkpt>
  <trkpt lat="46.1778251" lon="13.9750488">  <ele>1617.885</ele>  <time>2017-12-03T10:54:34.608Z</time>  </trkpt>
  <trkpt lat="46.1777637" lon="13.9749529">  <ele>1618.398</ele>  <time>2017-12-03T10:54:50.102Z</time>  </trkpt>
  <trkpt lat="46.1777089" lon="13.9748483">  <ele>1618.230</ele>  <time>2017-12-03T10:55:03.652Z</time>  </trkpt>
  <trkpt lat="46.1776302" lon="13.9747738">  <ele>1618.155</ele>  <time>2017-12-03T10:55:13.953Z</time>  </trkpt>
  <trkpt lat="46.1775630" lon="13.9746733">  <ele>1618.638</ele>  <time>2017-12-03T10:55:24.402Z</time>  </trkpt>
  <trkpt lat="46.1774872" lon="13.9745913">  <ele>1619.401</ele>  <time>2017-12-03T10:55:33.971Z</time>  </trkpt>
  <trkpt lat="46.1774872" lon="13.9745913">  <ele>1620.051</ele>  <time>2017-12-03T10:55:44.971Z</time>  </trkpt>
  <trkpt lat="46.1774872" lon="13.9745913">  <ele>1619.348</ele>  <time>2017-12-03T10:55:45.071Z</time>  </trkpt>
  <trkpt lat="46.1773767" lon="13.9744642">  <ele>1618.516</ele>  <time>2017-12-03T10:56:36.792Z</time>  </trkpt>
  <trkpt lat="46.1772961" lon="13.9743927">  <ele>1618.619</ele>  <time>2017-12-03T10:57:22.757Z</time>  </trkpt>
  <trkpt lat="46.1772121" lon="13.9743438">  <ele>1620.471</ele>  <time>2017-12-03T10:58:06.755Z</time>  </trkpt>
  <trkpt lat="46.1771409" lon="13.9744256">  <ele>1622.760</ele>  <time>2017-12-03T10:58:50.973Z</time>  </trkpt>
  <trkpt lat="46.1771409" lon="13.9744256">  <ele>1623.872</ele>  <time>2017-12-03T10:59:02.972Z</time>  </trkpt>
  <trkpt lat="46.1771409" lon="13.9744256">  <ele>1623.450</ele>  <time>2017-12-03T11:03:16.967Z</time>  </trkpt>
  <trkpt lat="46.1771409" lon="13.9744256">  <ele>1622.449</ele>  <time>2017-12-03T11:04:31.409Z</time>  </trkpt>
  <trkpt lat="46.1772549" lon="13.9744847">  <ele>1621.455</ele>  <time>2017-12-03T11:04:54.394Z</time>  </trkpt>
  <trkpt lat="46.1773487" lon="13.9745236">  <ele>1621.811</ele>  <time>2017-12-03T11:05:02.997Z</time>  </trkpt>
  <trkpt lat="46.1774354" lon="13.9745644">  <ele>1622.845</ele>  <time>2017-12-03T11:05:10.755Z</time>  </trkpt>
  <trkpt lat="46.1775049" lon="13.9746516">  <ele>1623.694</ele>  <time>2017-12-03T11:05:19.692Z</time>  </trkpt>
  <trkpt lat="46.1775919" lon="13.9747065">  <ele>1623.361</ele>  <time>2017-12-03T11:05:29.811Z</time>  </trkpt>
  <trkpt lat="46.1776645" lon="13.9748027">  <ele>1621.938</ele>  <time>2017-12-03T11:05:41.706Z</time>  </trkpt>
  <trkpt lat="46.1777417" lon="13.9748858">  <ele>1620.228</ele>  <time>2017-12-03T11:05:49.316Z</time>  </trkpt>
  <trkpt lat="46.1778161" lon="13.9749721">  <ele>1618.927</ele>  <time>2017-12-03T11:05:55.964Z</time>  </trkpt>
  <trkpt lat="46.1778161" lon="13.9749721">  <ele>1618.121</ele>  <time>2017-12-03T11:06:12.964Z</time>  </trkpt>
  <trkpt lat="46.1778161" lon="13.9749721">  <ele>1617.556</ele>  <time>2017-12-03T11:06:13.064Z</time>  </trkpt>
  <trkpt lat="46.1779871" lon="13.9752607">  <ele>1617.157</ele>  <time>2017-12-03T11:06:33.266Z</time>  </trkpt>
  <trkpt lat="46.1780500" lon="13.9753620">  <ele>1617.284</ele>  <time>2017-12-03T11:06:38.971Z</time>  </trkpt>
  <trkpt lat="46.1780500" lon="13.9753620">  <ele>1618.031</ele>  <time>2017-12-03T11:06:45.971Z</time>  </trkpt>
  <trkpt lat="46.1780500" lon="13.9753620">  <ele>1618.432</ele>  <time>2017-12-03T11:06:56.332Z</time>  </trkpt>
  <trkpt lat="46.1781862" lon="13.9755768">  <ele>1617.651</ele>  <time>2017-12-03T11:07:10.621Z</time>  </trkpt>
  <trkpt lat="46.1782698" lon="13.9756783">  <ele>1616.039</ele>  <time>2017-12-03T11:07:14.286Z</time>  </trkpt>
  <trkpt lat="46.1783508" lon="13.9757523">  <ele>1613.980</ele>  <time>2017-12-03T11:07:18.089Z</time>  </trkpt>
  <trkpt lat="46.1784442" lon="13.9757945">  <ele>1611.701</ele>  <time>2017-12-03T11:07:21.970Z</time>  </trkpt>
  <trkpt lat="46.1784442" lon="13.9757945">  <ele>1609.913</ele>  <time>2017-12-03T11:07:21.970Z</time>  </trkpt>
  <trkpt lat="46.1784442" lon="13.9757945">  <ele>1608.906</ele>  <time>2017-12-03T11:07:22.070Z</time>  </trkpt>
  <trkpt lat="46.1785844" lon="13.9759032">  <ele>1608.340</ele>  <time>2017-12-03T11:07:27.902Z</time>  </trkpt>
  <trkpt lat="46.1787053" lon="13.9759198">  <ele>1607.417</ele>  <time>2017-12-03T11:07:30.808Z</time>  </trkpt>
  <trkpt lat="46.1787919" lon="13.9759968">  <ele>1605.593</ele>  <time>2017-12-03T11:07:33.227Z</time>  </trkpt>
  <trkpt lat="46.1789001" lon="13.9760834">  <ele>1603.207</ele>  <time>2017-12-03T11:07:36.185Z</time>  </trkpt>
  <trkpt lat="46.1789797" lon="13.9761725">  <ele>1600.957</ele>  <time>2017-12-03T11:07:38.746Z</time>  </trkpt>
  <trkpt lat="46.1790892" lon="13.9762310">  <ele>1599.231</ele>  <time>2017-12-03T11:07:42.064Z</time>  </trkpt>
  <trkpt lat="46.1792000" lon="13.9762540">  <ele>1598.189</ele>  <time>2017-12-03T11:07:45.477Z</time>  </trkpt>
  <trkpt lat="46.1792885" lon="13.9763044">  <ele>1597.015</ele>  <time>2017-12-03T11:07:48.970Z</time>  </trkpt>
  <trkpt lat="46.1792885" lon="13.9763044">  <ele>1595.146</ele>  <time>2017-12-03T11:07:50.970Z</time>  </trkpt>
  <trkpt lat="46.1792885" lon="13.9763044">  <ele>1593.471</ele>  <time>2017-12-03T11:07:53.970Z</time>  </trkpt>
  <trkpt lat="46.1792885" lon="13.9763044">  <ele>1592.850</ele>  <time>2017-12-03T11:16:43.776Z</time>  </trkpt>
  <trkpt lat="46.1793562" lon="13.9765567">  <ele>1592.688</ele>  <time>2017-12-03T11:17:00.965Z</time>  </trkpt>
  <trkpt lat="46.1793562" lon="13.9765567">  <ele>1592.205</ele>  <time>2017-12-03T11:17:11.965Z</time>  </trkpt>
  <trkpt lat="46.1793562" lon="13.9765567">  <ele>1591.389</ele>  <time>2017-12-03T11:17:54.410Z</time>  </trkpt>
  <trkpt lat="46.1795290" lon="13.9767261">  <ele>1590.682</ele>  <time>2017-12-03T11:18:06.579Z</time>  </trkpt>
  <trkpt lat="46.1796111" lon="13.9768188">  <ele>1588.443</ele>  <time>2017-12-03T11:18:09.908Z</time>  </trkpt>
  <trkpt lat="46.1796338" lon="13.9769470">  <ele>1583.171</ele>  <time>2017-12-03T11:18:13.008Z</time>  </trkpt>
  <trkpt lat="46.1795485" lon="13.9770423">  <ele>1576.917</ele>  <time>2017-12-03T11:18:16.786Z</time>  </trkpt>
  <trkpt lat="46.1796220" lon="13.9771757">  <ele>1572.308</ele>  <time>2017-12-03T11:18:20.926Z</time>  </trkpt>
  <trkpt lat="46.1797056" lon="13.9772464">  <ele>1569.225</ele>  <time>2017-12-03T11:18:23.964Z</time>  </trkpt>
  <trkpt lat="46.1797056" lon="13.9772464">  <ele>1567.052</ele>  <time>2017-12-03T11:18:35.963Z</time>  </trkpt>
  <trkpt lat="46.1797056" lon="13.9772464">  <ele>1565.708</ele>  <time>2017-12-03T11:18:45.741Z</time>  </trkpt>
  <trkpt lat="46.1797600" lon="13.9774751">  <ele>1565.164</ele>  <time>2017-12-03T11:18:53.891Z</time>  </trkpt>
  <trkpt lat="46.1797885" lon="13.9777099">  <ele>1563.626</ele>  <time>2017-12-03T11:18:57.329Z</time>  </trkpt>
  <trkpt lat="46.1798683" lon="13.9778534">  <ele>1559.901</ele>  <time>2017-12-03T11:18:59.922Z</time>  </trkpt>
  <trkpt lat="46.1799397" lon="13.9779462">  <ele>1555.587</ele>  <time>2017-12-03T11:19:01.954Z</time>  </trkpt>
  <trkpt lat="46.1799367" lon="13.9781268">  <ele>1551.623</ele>  <time>2017-12-03T11:19:04.630Z</time>  </trkpt>
  <trkpt lat="46.1799247" lon="13.9783425">  <ele>1547.358</ele>  <time>2017-12-03T11:19:07.724Z</time>  </trkpt>
  <trkpt lat="46.1799651" lon="13.9785049">  <ele>1543.000</ele>  <time>2017-12-03T11:19:10.320Z</time>  </trkpt>
  <trkpt lat="46.1800563" lon="13.9785267">  <ele>1537.841</ele>  <time>2017-12-03T11:19:12.963Z</time>  </trkpt>
  <trkpt lat="46.1800563" lon="13.9785267">  <ele>1531.843</ele>  <time>2017-12-03T11:19:14.963Z</time>  </trkpt>
  <trkpt lat="46.1800563" lon="13.9785267">  <ele>1527.871</ele>  <time>2017-12-03T11:19:30.845Z</time>  </trkpt>
  <trkpt lat="46.1802026" lon="13.9786014">  <ele>1527.453</ele>  <time>2017-12-03T11:19:40.978Z</time>  </trkpt>
  <trkpt lat="46.1802889" lon="13.9787072">  <ele>1525.493</ele>  <time>2017-12-03T11:19:45.471Z</time>  </trkpt>
  <trkpt lat="46.1803058" lon="13.9788623">  <ele>1517.624</ele>  <time>2017-12-03T11:19:49.103Z</time>  </trkpt>
  <trkpt lat="46.1803456" lon="13.9789917">  <ele>1507.336</ele>  <time>2017-12-03T11:19:52.260Z</time>  </trkpt>
  <trkpt lat="46.1804161" lon="13.9790824">  <ele>1499.866</ele>  <time>2017-12-03T11:19:55.746Z</time>  </trkpt>
  <trkpt lat="46.1804865" lon="13.9791649">  <ele>1496.035</ele>  <time>2017-12-03T11:20:01.720Z</time>  </trkpt>
  <trkpt lat="46.1805886" lon="13.9792208">  <ele>1494.400</ele>  <time>2017-12-03T11:20:09.667Z</time>  </trkpt>
  <trkpt lat="46.1806748" lon="13.9792757">  <ele>1492.750</ele>  <time>2017-12-03T11:20:16.309Z</time>  </trkpt>
  <trkpt lat="46.1807791" lon="13.9793413">  <ele>1490.361</ele>  <time>2017-12-03T11:20:22.087Z</time>  </trkpt>
  <trkpt lat="46.1808571" lon="13.9794060">  <ele>1488.075</ele>  <time>2017-12-03T11:20:25.961Z</time>  </trkpt>
  <trkpt lat="46.1808571" lon="13.9794060">  <ele>1486.673</ele>  <time>2017-12-03T11:20:41.961Z</time>  </trkpt>
  <trkpt lat="46.1808571" lon="13.9794060">  <ele>1485.985</ele>  <time>2017-12-03T11:21:35.578Z</time>  </trkpt>
  <trkpt lat="46.1810120" lon="13.9795964">  <ele>1485.542</ele>  <time>2017-12-03T11:22:02.965Z</time>  </trkpt>
  <trkpt lat="46.1810120" lon="13.9795964">  <ele>1485.007</ele>  <time>2017-12-03T11:22:10.965Z</time>  </trkpt>
  <trkpt lat="46.1810120" lon="13.9795964">  <ele>1484.311</ele>  <time>2017-12-03T11:22:11.065Z</time>  </trkpt>
  <trkpt lat="46.1811905" lon="13.9797601">  <ele>1483.647</ele>  <time>2017-12-03T11:22:17.231Z</time>  </trkpt>
  <trkpt lat="46.1812815" lon="13.9798712">  <ele>1482.046</ele>  <time>2017-12-03T11:22:18.965Z</time>  </trkpt>
  <trkpt lat="46.1812815" lon="13.9798712">  <ele>1478.761</ele>  <time>2017-12-03T11:22:24.964Z</time>  </trkpt>
  <trkpt lat="46.1812815" lon="13.9798712">  <ele>1475.883</ele>  <time>2017-12-03T11:22:25.064Z</time>  </trkpt>
  <trkpt lat="46.1814859" lon="13.9801109">  <ele>1475.327</ele>  <time>2017-12-03T11:22:41.605Z</time>  </trkpt>
  <trkpt lat="46.1814997" lon="13.9802756">  <ele>1473.840</ele>  <time>2017-12-03T11:22:44.666Z</time>  </trkpt>
  <trkpt lat="46.1815264" lon="13.9804190">  <ele>1468.194</ele>  <time>2017-12-03T11:22:46.930Z</time>  </trkpt>
  <trkpt lat="46.1815889" lon="13.9805296">  <ele>1460.689</ele>  <time>2017-12-03T11:22:48.964Z</time>  </trkpt>
  <trkpt lat="46.1815889" lon="13.9805296">  <ele>1455.258</ele>  <time>2017-12-03T11:22:50.964Z</time>  </trkpt>
  <trkpt lat="46.1815889" lon="13.9805296">  <ele>1452.833</ele>  <time>2017-12-03T11:22:54.439Z</time>  </trkpt>
  <trkpt lat="46.1818271" lon="13.9806533">  <ele>1452.547</ele>  <time>2017-12-03T11:23:18.138Z</time>  </trkpt>
  <trkpt lat="46.1819095" lon="13.9807116">  <ele>1451.558</ele>  <time>2017-12-03T11:23:22.427Z</time>  </trkpt>
  <trkpt lat="46.1820019" lon="13.9808022">  <ele>1448.156</ele>  <time>2017-12-03T11:23:28.156Z</time>  </trkpt>
  <trkpt lat="46.1821040" lon="13.9808524">  <ele>1444.064</ele>  <time>2017-12-03T11:23:34.255Z</time>  </trkpt>
  <trkpt lat="46.1821780" lon="13.9809552">  <ele>1441.242</ele>  <time>2017-12-03T11:23:41.548Z</time>  </trkpt>
  <trkpt lat="46.1822565" lon="13.9810279">  <ele>1439.421</ele>  <time>2017-12-03T11:23:48.287Z</time>  </trkpt>
  <trkpt lat="46.1823518" lon="13.9810704">  <ele>1437.564</ele>  <time>2017-12-03T11:23:54.071Z</time>  </trkpt>
  <trkpt lat="46.1824424" lon="13.9811144">  <ele>1435.306</ele>  <time>2017-12-03T11:24:00.070Z</time>  </trkpt>
  <trkpt lat="46.1825399" lon="13.9811711">  <ele>1432.581</ele>  <time>2017-12-03T11:24:06.726Z</time>  </trkpt>
  <trkpt lat="46.1826182" lon="13.9812688">  <ele>1429.256</ele>  <time>2017-12-03T11:24:13.295Z</time>  </trkpt>
  <trkpt lat="46.1826859" lon="13.9813805">  <ele>1425.616</ele>  <time>2017-12-03T11:24:19.812Z</time>  </trkpt>
  <trkpt lat="46.1827552" lon="13.9814813">  <ele>1421.606</ele>  <time>2017-12-03T11:24:25.243Z</time>  </trkpt>
  <trkpt lat="46.1828333" lon="13.9815537">  <ele>1416.980</ele>  <time>2017-12-03T11:24:29.415Z</time>  </trkpt>
  <trkpt lat="46.1828910" lon="13.9816808">  <ele>1412.493</ele>  <time>2017-12-03T11:24:33.962Z</time>  </trkpt>
  <trkpt lat="46.1828910" lon="13.9816808">  <ele>1409.119</ele>  <time>2017-12-03T11:24:35.962Z</time>  </trkpt>
  <trkpt lat="46.1828910" lon="13.9816808">  <ele>1407.397</ele>  <time>2017-12-03T11:24:43.497Z</time>  </trkpt>
  <trkpt lat="46.1830854" lon="13.9818389">  <ele>1406.996</ele>  <time>2017-12-03T11:24:58.316Z</time>  </trkpt>
  <trkpt lat="46.1831840" lon="13.9818913">  <ele>1404.713</ele>  <time>2017-12-03T11:25:00.961Z</time>  </trkpt>
  <trkpt lat="46.1831840" lon="13.9818913">  <ele>1398.599</ele>  <time>2017-12-03T11:25:15.961Z</time>  </trkpt>
  <trkpt lat="46.1831840" lon="13.9818913">  <ele>1393.198</ele>  <time>2017-12-03T11:25:16.061Z</time>  </trkpt>
  <trkpt lat="46.1833570" lon="13.9821014">  <ele>1392.698</ele>  <time>2017-12-03T11:25:27.313Z</time>  </trkpt>
  <trkpt lat="46.1834399" lon="13.9821644">  <ele>1391.750</ele>  <time>2017-12-03T11:25:31.658Z</time>  </trkpt>
  <trkpt lat="46.1835267" lon="13.9822723">  <ele>1385.177</ele>  <time>2017-12-03T11:25:36.961Z</time>  </trkpt>
  <trkpt lat="46.1835267" lon="13.9822723">  <ele>1376.906</ele>  <time>2017-12-03T11:25:44.961Z</time>  </trkpt>
  <trkpt lat="46.1835267" lon="13.9822723">  <ele>1372.655</ele>  <time>2017-12-03T11:26:26.037Z</time>  </trkpt>
  <trkpt lat="46.1836371" lon="13.9825921">  <ele>1372.497</ele>  <time>2017-12-03T11:26:38.054Z</time>  </trkpt>
  <trkpt lat="46.1836261" lon="13.9827468">  <ele>1371.802</ele>  <time>2017-12-03T11:26:40.443Z</time>  </trkpt>
  <trkpt lat="46.1835689" lon="13.9829252">  <ele>1367.039</ele>  <time>2017-12-03T11:26:42.960Z</time>  </trkpt>
  <trkpt lat="46.1835689" lon="13.9829252">  <ele>1360.954</ele>  <time>2017-12-03T11:26:45.959Z</time>  </trkpt>
  <trkpt lat="46.1835689" lon="13.9829252">  <ele>1357.687</ele>  <time>2017-12-03T11:27:19.096Z</time>  </trkpt>
  <trkpt lat="46.1835593" lon="13.9832264">  <ele>1357.417</ele>  <time>2017-12-03T11:27:31.467Z</time>  </trkpt>
  <trkpt lat="46.1835005" lon="13.9833402">  <ele>1354.523</ele>  <time>2017-12-03T11:27:34.258Z</time>  </trkpt>
  <trkpt lat="46.1834008" lon="13.9833613">  <ele>1344.658</ele>  <time>2017-12-03T11:27:36.958Z</time>  </trkpt>
  <trkpt lat="46.1834008" lon="13.9833613">  <ele>1333.087</ele>  <time>2017-12-03T11:27:40.958Z</time>  </trkpt>
  <trkpt lat="46.1834008" lon="13.9833613">  <ele>1327.215</ele>  <time>2017-12-03T11:27:51.381Z</time>  </trkpt>
  <trkpt lat="46.1832643" lon="13.9835511">  <ele>1327.237</ele>  <time>2017-12-03T11:28:00.963Z</time>  </trkpt>
  <trkpt lat="46.1832643" lon="13.9835511">  <ele>1328.736</ele>  <time>2017-12-03T11:28:10.963Z</time>  </trkpt>
  <trkpt lat="46.1832643" lon="13.9835511">  <ele>1328.359</ele>  <time>2017-12-03T11:28:11.063Z</time>  </trkpt>
  <trkpt lat="46.1832725" lon="13.9837699">  <ele>1326.840</ele>  <time>2017-12-03T11:28:19.628Z</time>  </trkpt>
  <trkpt lat="46.1832608" lon="13.9839170">  <ele>1323.299</ele>  <time>2017-12-03T11:28:22.514Z</time>  </trkpt>
  <trkpt lat="46.1832464" lon="13.9840744">  <ele>1316.076</ele>  <time>2017-12-03T11:28:25.229Z</time>  </trkpt>
  <trkpt lat="46.1832040" lon="13.9842371">  <ele>1308.031</ele>  <time>2017-12-03T11:28:27.946Z</time>  </trkpt>
  <trkpt lat="46.1831630" lon="13.9843963">  <ele>1302.417</ele>  <time>2017-12-03T11:28:30.422Z</time>  </trkpt>
  <trkpt lat="46.1831213" lon="13.9845713">  <ele>1298.727</ele>  <time>2017-12-03T11:28:32.963Z</time>  </trkpt>
  <trkpt lat="46.1831213" lon="13.9845713">  <ele>1296.149</ele>  <time>2017-12-03T11:28:34.963Z</time>  </trkpt>
  <trkpt lat="46.1831213" lon="13.9845713">  <ele>1294.699</ele>  <time>2017-12-03T11:29:27.483Z</time>  </trkpt>
  <trkpt lat="46.1829887" lon="13.9847970">  <ele>1294.291</ele>  <time>2017-12-03T11:29:37.040Z</time>  </trkpt>
  <trkpt lat="46.1828838" lon="13.9849200">  <ele>1291.850</ele>  <time>2017-12-03T11:29:40.006Z</time>  </trkpt>
  <trkpt lat="46.1828128" lon="13.9850027">  <ele>1285.163</ele>  <time>2017-12-03T11:29:42.003Z</time>  </trkpt>
  <trkpt lat="46.1828008" lon="13.9851909">  <ele>1277.419</ele>  <time>2017-12-03T11:29:44.984Z</time>  </trkpt>
  <trkpt lat="46.1827737" lon="13.9853730">  <ele>1272.032</ele>  <time>2017-12-03T11:29:48.074Z</time>  </trkpt>
  <trkpt lat="46.1827736" lon="13.9855337">  <ele>1268.330</ele>  <time>2017-12-03T11:29:50.961Z</time>  </trkpt>
  <trkpt lat="46.1827736" lon="13.9855337">  <ele>1265.579</ele>  <time>2017-12-03T11:29:55.961Z</time>  </trkpt>
  <trkpt lat="46.1827736" lon="13.9855337">  <ele>1264.039</ele>  <time>2017-12-03T11:29:56.961Z</time>  </trkpt>
  <trkpt lat="46.1827736" lon="13.9855337">  <ele>1263.652</ele>  <time>2017-12-03T11:30:40.651Z</time>  </trkpt>
  <trkpt lat="46.1827552" lon="13.9858454">  <ele>1263.580</ele>  <time>2017-12-03T11:30:53.055Z</time>  </trkpt>
  <trkpt lat="46.1827474" lon="13.9860005">  <ele>1258.671</ele>  <time>2017-12-03T11:30:55.839Z</time>  </trkpt>
  <trkpt lat="46.1827286" lon="13.9861300">  <ele>1246.072</ele>  <time>2017-12-03T11:30:57.960Z</time>  </trkpt>
  <trkpt lat="46.1827286" lon="13.9861300">  <ele>1232.969</ele>  <time>2017-12-03T11:31:09.960Z</time>  </trkpt>
  <trkpt lat="46.1827286" lon="13.9861300">  <ele>1226.984</ele>  <time>2017-12-03T11:31:24.649Z</time>  </trkpt>
  <trkpt lat="46.1828082" lon="13.9863306">  <ele>1227.188</ele>  <time>2017-12-03T11:31:34.144Z</time>  </trkpt>
  <trkpt lat="46.1829019" lon="13.9864099">  <ele>1227.837</ele>  <time>2017-12-03T11:31:37.771Z</time>  </trkpt>
  <trkpt lat="46.1829179" lon="13.9866138">  <ele>1224.836</ele>  <time>2017-12-03T11:31:41.632Z</time>  </trkpt>
  <trkpt lat="46.1829120" lon="13.9867679">  <ele>1219.921</ele>  <time>2017-12-03T11:31:44.378Z</time>  </trkpt>
  <trkpt lat="46.1828991" lon="13.9869211">  <ele>1215.284</ele>  <time>2017-12-03T11:31:47.079Z</time>  </trkpt>
  <trkpt lat="46.1828841" lon="13.9871041">  <ele>1210.093</ele>  <time>2017-12-03T11:31:50.122Z</time>  </trkpt>
  <trkpt lat="46.1828916" lon="13.9872737">  <ele>1204.290</ele>  <time>2017-12-03T11:31:52.772Z</time>  </trkpt>
  <trkpt lat="46.1829312" lon="13.9874023">  <ele>1199.306</ele>  <time>2017-12-03T11:31:54.959Z</time>  </trkpt>
  <trkpt lat="46.1829312" lon="13.9874023">  <ele>1196.183</ele>  <time>2017-12-03T11:31:56.959Z</time>  </trkpt>
  <trkpt lat="46.1829312" lon="13.9874023">  <ele>1194.830</ele>  <time>2017-12-03T11:32:13.637Z</time>  </trkpt>
  <trkpt lat="46.1830222" lon="13.9875723">  <ele>1194.527</ele>  <time>2017-12-03T11:32:20.834Z</time>  </trkpt>
  <trkpt lat="46.1830842" lon="13.9876786">  <ele>1192.786</ele>  <time>2017-12-03T11:32:23.354Z</time>  </trkpt>
  <trkpt lat="46.1831430" lon="13.9878234">  <ele>1188.126</ele>  <time>2017-12-03T11:32:26.055Z</time>  </trkpt>
  <trkpt lat="46.1831471" lon="13.9880055">  <ele>1182.212</ele>  <time>2017-12-03T11:32:28.784Z</time>  </trkpt>
  <trkpt lat="46.1830501" lon="13.9882303">  <ele>1176.853</ele>  <time>2017-12-03T11:32:32.501Z</time>  </trkpt>
  <trkpt lat="46.1829691" lon="13.9884592">  <ele>1172.109</ele>  <time>2017-12-03T11:32:35.624Z</time>  </trkpt>
  <trkpt lat="46.1829135" lon="13.9886983">  <ele>1168.157</ele>  <time>2017-12-03T11:32:38.407Z</time>  </trkpt>
  <trkpt lat="46.1828683" lon="13.9889134">  <ele>1165.231</ele>  <time>2017-12-03T11:32:40.858Z</time>  </trkpt>
  <trkpt lat="46.1828169" lon="13.9890848">  <ele>1163.382</ele>  <time>2017-12-03T11:32:42.958Z</time>  </trkpt>
  <trkpt lat="46.1828169" lon="13.9890848">  <ele>1162.309</ele>  <time>2017-12-03T11:32:48.958Z</time>  </trkpt>
  <trkpt lat="46.1828169" lon="13.9890848">  <ele>1161.713</ele>  <time>2017-12-03T11:33:29.333Z</time>  </trkpt>
  <trkpt lat="46.1826938" lon="13.9893707">  <ele>1161.297</ele>  <time>2017-12-03T11:33:42.761Z</time>  </trkpt>
  <trkpt lat="46.1826918" lon="13.9895116">  <ele>1158.447</ele>  <time>2017-12-03T11:33:45.557Z</time>  </trkpt>
  <trkpt lat="46.1826336" lon="13.9896310">  <ele>1151.293</ele>  <time>2017-12-03T11:33:48.308Z</time>  </trkpt>
  <trkpt lat="46.1825722" lon="13.9897696">  <ele>1143.430</ele>  <time>2017-12-03T11:33:51.419Z</time>  </trkpt>
  <trkpt lat="46.1825633" lon="13.9899307">  <ele>1139.011</ele>  <time>2017-12-03T11:33:54.507Z</time>  </trkpt>
  <trkpt lat="46.1825371" lon="13.9900876">  <ele>1137.144</ele>  <time>2017-12-03T11:33:57.492Z</time>  </trkpt>
  <trkpt lat="46.1824719" lon="13.9902564">  <ele>1135.643</ele>  <time>2017-12-03T11:34:00.678Z</time>  </trkpt>
  <trkpt lat="46.1824444" lon="13.9903968">  <ele>1134.034</ele>  <time>2017-12-03T11:34:02.957Z</time>  </trkpt>
  <trkpt lat="46.1824444" lon="13.9903968">  <ele>1132.943</ele>  <time>2017-12-03T11:34:05.957Z</time>  </trkpt>
  <trkpt lat="46.1824444" lon="13.9903968">  <ele>1132.530</ele>  <time>2017-12-03T11:34:06.057Z</time>  </trkpt>
  <trkpt lat="46.1823695" lon="13.9907545">  <ele>1132.368</ele>  <time>2017-12-03T11:34:28.077Z</time>  </trkpt>
  <trkpt lat="46.1823208" lon="13.9908892">  <ele>1131.772</ele>  <time>2017-12-03T11:34:32.721Z</time>  </trkpt>
  <trkpt lat="46.1822873" lon="13.9910359">  <ele>1130.565</ele>  <time>2017-12-03T11:34:36.385Z</time>  </trkpt>
  <trkpt lat="46.1822691" lon="13.9912093">  <ele>1128.766</ele>  <time>2017-12-03T11:34:39.411Z</time>  </trkpt>
  <trkpt lat="46.1822557" lon="13.9913739">  <ele>1126.414</ele>  <time>2017-12-03T11:34:41.898Z</time>  </trkpt>
  <trkpt lat="46.1822341" lon="13.9915661">  <ele>1124.201</ele>  <time>2017-12-03T11:34:44.646Z</time>  </trkpt>
  <trkpt lat="46.1822183" lon="13.9917536">  <ele>1122.612</ele>  <time>2017-12-03T11:34:47.233Z</time>  </trkpt>
  <trkpt lat="46.1821945" lon="13.9919467">  <ele>1121.422</ele>  <time>2017-12-03T11:34:49.808Z</time>  </trkpt>
  <trkpt lat="46.1822060" lon="13.9922075">  <ele>1120.692</ele>  <time>2017-12-03T11:34:53.147Z</time>  </trkpt>
  <trkpt lat="46.1821796" lon="13.9923891">  <ele>1120.564</ele>  <time>2017-12-03T11:34:55.650Z</time>  </trkpt>
  <trkpt lat="46.1822089" lon="13.9925502">  <ele>1120.547</ele>  <time>2017-12-03T11:34:58.039Z</time>  </trkpt>
  <trkpt lat="46.1822401" lon="13.9927212">  <ele>1120.025</ele>  <time>2017-12-03T11:35:00.564Z</time>  </trkpt>
  <trkpt lat="46.1822698" lon="13.9929579">  <ele>1119.166</ele>  <time>2017-12-03T11:35:03.864Z</time>  </trkpt>
  <trkpt lat="46.1822174" lon="13.9931699">  <ele>1118.424</ele>  <time>2017-12-03T11:35:06.943Z</time>  </trkpt>
  <trkpt lat="46.1822846" lon="13.9932871">  <ele>1117.847</ele>  <time>2017-12-03T11:35:09.209Z</time>  </trkpt>
  <trkpt lat="46.1822948" lon="13.9934579">  <ele>1117.049</ele>  <time>2017-12-03T11:35:11.931Z</time>  </trkpt>
  <trkpt lat="46.1824090" lon="13.9935396">  <ele>1115.638</ele>  <time>2017-12-03T11:35:15.222Z</time>  </trkpt>
  <trkpt lat="46.1825364" lon="13.9935432">  <ele>1113.600</ele>  <time>2017-12-03T11:35:18.596Z</time>  </trkpt>
  <trkpt lat="46.1826046" lon="13.9934428">  <ele>1111.056</ele>  <time>2017-12-03T11:35:21.276Z</time>  </trkpt>
  <trkpt lat="46.1825955" lon="13.9932915">  <ele>1108.244</ele>  <time>2017-12-03T11:35:24.496Z</time>  </trkpt>
  <trkpt lat="46.1825539" lon="13.9931491">  <ele>1105.537</ele>  <time>2017-12-03T11:35:27.961Z</time>  </trkpt>
  <trkpt lat="46.1825539" lon="13.9931491">  <ele>1103.294</ele>  <time>2017-12-03T11:35:31.961Z</time>  </trkpt>
  <trkpt lat="46.1825539" lon="13.9931491">  <ele>1101.984</ele>  <time>2017-12-03T11:35:32.061Z</time>  </trkpt>
  <trkpt lat="46.1827769" lon="13.9931201">  <ele>1101.634</ele>  <time>2017-12-03T11:36:00.960Z</time>  </trkpt>
  <trkpt lat="46.1827769" lon="13.9931201">  <ele>1101.513</ele>  <time>2017-12-03T11:36:04.960Z</time>  </trkpt>
  <trkpt lat="46.1827769" lon="13.9931201">  <ele>1101.080</ele>  <time>2017-12-03T11:36:05.060Z</time>  </trkpt>
  <trkpt lat="46.1828676" lon="13.9933994">  <ele>1100.529</ele>  <time>2017-12-03T11:36:22.966Z</time>  </trkpt>
  <trkpt lat="46.1828811" lon="13.9935288">  <ele>1099.280</ele>  <time>2017-12-03T11:36:27.933Z</time>  </trkpt>
  <trkpt lat="46.1829391" lon="13.9936334">  <ele>1096.453</ele>  <time>2017-12-03T11:36:34.417Z</time>  </trkpt>
  <trkpt lat="46.1829321" lon="13.9937841">  <ele>1093.180</ele>  <time>2017-12-03T11:36:41.596Z</time>  </trkpt>
  <trkpt lat="46.1829515" lon="13.9939188">  <ele>1091.201</ele>  <time>2017-12-03T11:36:47.441Z</time>  </trkpt>
  <trkpt lat="46.1829897" lon="13.9940444">  <ele>1090.624</ele>  <time>2017-12-03T11:36:55.815Z</time>  </trkpt>
  <trkpt lat="46.1829926" lon="13.9941777">  <ele>1090.668</ele>  <time>2017-12-03T11:37:03.959Z</time>  </trkpt>
  <trkpt lat="46.1829926" lon="13.9941777">  <ele>1090.699</ele>  <time>2017-12-03T11:37:13.959Z</time>  </trkpt>
  <trkpt lat="46.1829926" lon="13.9941777">  <ele>1090.463</ele>  <time>2017-12-03T11:37:29.181Z</time>  </trkpt>
  <trkpt lat="46.1829999" lon="13.9943637">  <ele>1089.997</ele>  <time>2017-12-03T11:37:47.524Z</time>  </trkpt>
  <trkpt lat="46.1829448" lon="13.9944729">  <ele>1088.564</ele>  <time>2017-12-03T11:37:54.707Z</time>  </trkpt>
  <trkpt lat="46.1828767" lon="13.9945669">  <ele>1085.491</ele>  <time>2017-12-03T11:38:01.489Z</time>  </trkpt>
  <trkpt lat="46.1828167" lon="13.9946760">  <ele>1081.711</ele>  <time>2017-12-03T11:38:08.644Z</time>  </trkpt>
  <trkpt lat="46.1827606" lon="13.9947941">  <ele>1078.804</ele>  <time>2017-12-03T11:38:16.887Z</time>  </trkpt>
  <trkpt lat="46.1827312" lon="13.9949207">  <ele>1077.397</ele>  <time>2017-12-03T11:38:23.957Z</time>  </trkpt>
  <trkpt lat="46.1827312" lon="13.9949207">  <ele>1077.270</ele>  <time>2017-12-03T11:38:32.957Z</time>  </trkpt>
  <trkpt lat="46.1827312" lon="13.9949207">  <ele>1077.375</ele>  <time>2017-12-03T11:38:48.291Z</time>  </trkpt>
  <trkpt lat="46.1826710" lon="13.9951186">  <ele>1077.013</ele>  <time>2017-12-03T11:39:06.998Z</time>  </trkpt>
  <trkpt lat="46.1825863" lon="13.9951722">  <ele>1076.481</ele>  <time>2017-12-03T11:39:15.057Z</time>  </trkpt>
  <trkpt lat="46.1825965" lon="13.9953024">  <ele>1076.234</ele>  <time>2017-12-03T11:39:23.627Z</time>  </trkpt>
  <trkpt lat="46.1826504" lon="13.9954181">  <ele>1075.921</ele>  <time>2017-12-03T11:39:33.749Z</time>  </trkpt>
  <trkpt lat="46.1826595" lon="13.9955475">  <ele>1075.027</ele>  <time>2017-12-03T11:39:44.186Z</time>  </trkpt>
  <trkpt lat="46.1826698" lon="13.9956836">  <ele>1073.651</ele>  <time>2017-12-03T11:40:02.510Z</time>  </trkpt>
  <trkpt lat="46.1826158" lon="13.9957925">  <ele>1072.368</ele>  <time>2017-12-03T11:40:23.015Z</time>  </trkpt>
  <trkpt lat="46.1825703" lon="13.9959115">  <ele>1072.630</ele>  <time>2017-12-03T11:40:34.217Z</time>  </trkpt>
  <trkpt lat="46.1825338" lon="13.9960334">  <ele>1075.633</ele>  <time>2017-12-03T11:40:43.044Z</time>  </trkpt>
  <trkpt lat="46.1824825" lon="13.9961442">  <ele>1079.989</ele>  <time>2017-12-03T11:40:51.954Z</time>  </trkpt>
  <trkpt lat="46.1824825" lon="13.9961442">  <ele>1083.202</ele>  <time>2017-12-03T11:40:56.954Z</time>  </trkpt>
  <trkpt lat="46.1824825" lon="13.9961442">  <ele>1084.232</ele>  <time>2017-12-03T11:40:57.054Z</time>  </trkpt>
  <trkpt lat="46.1824825" lon="13.9961442">  <ele>1082.532</ele>  <time>2017-12-03T11:41:10.954Z</time>  </trkpt>
  <trkpt lat="46.1824825" lon="13.9961442">  <ele>1081.925</ele>  <time>2017-12-03T11:41:11.054Z</time>  </trkpt>
  <trkpt lat="46.1824513" lon="13.9963064">  <ele>1081.821</ele>  <time>2017-12-03T11:41:41.452Z</time>  </trkpt>
  <trkpt lat="46.1824205" lon="13.9964379">  <ele>1081.879</ele>  <time>2017-12-03T11:41:53.820Z</time>  </trkpt>
  <trkpt lat="46.1823571" lon="13.9965603">  <ele>1082.343</ele>  <time>2017-12-03T11:42:05.517Z</time>  </trkpt>
  <trkpt lat="46.1822810" lon="13.9966348">  <ele>1083.695</ele>  <time>2017-12-03T11:42:13.805Z</time>  </trkpt>
  <trkpt lat="46.1822223" lon="13.9967372">  <ele>1085.352</ele>  <time>2017-12-03T11:42:20.958Z</time>  </trkpt>
  <trkpt lat="46.1822223" lon="13.9967372">  <ele>1086.400</ele>  <time>2017-12-03T11:42:21.958Z</time>  </trkpt>
  <trkpt lat="46.1822223" lon="13.9967372">  <ele>1086.588</ele>  <time>2017-12-03T11:42:23.840Z</time>  </trkpt>
  <trkpt lat="46.1821924" lon="13.9968649">  <ele>1085.432</ele>  <time>2017-12-03T11:42:41.300Z</time>  </trkpt>
  <trkpt lat="46.1821154" lon="13.9969419">  <ele>1085.349</ele>  <time>2017-12-03T11:42:52.916Z</time>  </trkpt>
  <trkpt lat="46.1820465" lon="13.9970366">  <ele>1086.209</ele>  <time>2017-12-03T11:43:05.989Z</time>  </trkpt>
  <trkpt lat="46.1820019" lon="13.9971784">  <ele>1088.132</ele>  <time>2017-12-03T11:43:22.336Z</time>  </trkpt>
  <trkpt lat="46.1819732" lon="13.9973036">  <ele>1090.511</ele>  <time>2017-12-03T11:43:32.827Z</time>  </trkpt>
  <trkpt lat="46.1819289" lon="13.9974327">  <ele>1092.224</ele>  <time>2017-12-03T11:43:42.957Z</time>  </trkpt>
  <trkpt lat="46.1819289" lon="13.9974327">  <ele>1092.614</ele>  <time>2017-12-03T11:43:48.956Z</time>  </trkpt>
  <trkpt lat="46.1819289" lon="13.9974327">  <ele>1092.043</ele>  <time>2017-12-03T11:43:49.056Z</time>  </trkpt>
  <trkpt lat="46.1818247" lon="13.9976444">  <ele>1091.307</ele>  <time>2017-12-03T11:44:11.340Z</time>  </trkpt>
  <trkpt lat="46.1817650" lon="13.9977450">  <ele>1090.970</ele>  <time>2017-12-03T11:44:18.956Z</time>  </trkpt>
  <trkpt lat="46.1817650" lon="13.9977450">  <ele>1090.867</ele>  <time>2017-12-03T11:44:19.956Z</time>  </trkpt>
  <trkpt lat="46.1817650" lon="13.9977450">  <ele>1090.575</ele>  <time>2017-12-03T11:44:23.714Z</time>  </trkpt>
  <trkpt lat="46.1816979" lon="13.9978476">  <ele>1089.709</ele>  <time>2017-12-03T11:45:42.689Z</time>  </trkpt>
  <trkpt lat="46.1816182" lon="13.9979292">  <ele>1090.117</ele>  <time>2017-12-03T11:46:52.871Z</time>  </trkpt>
  <trkpt lat="46.1815507" lon="13.9980168">  <ele>1091.848</ele>  <time>2017-12-03T11:47:58.082Z</time>  </trkpt>
  <trkpt lat="46.1814870" lon="13.9981261">  <ele>1094.242</ele>  <time>2017-12-03T11:49:09.103Z</time>  </trkpt>
  <trkpt lat="46.1814435" lon="13.9982526">  <ele>1096.158</ele>  <time>2017-12-03T11:50:11.955Z</time>  </trkpt>
  <trkpt lat="46.1814435" lon="13.9982526">  <ele>1097.184</ele>  <time>2017-12-03T11:50:13.954Z</time>  </trkpt>
  <trkpt lat="46.1814435" lon="13.9982526">  <ele>1097.298</ele>  <time>2017-12-03T11:50:14.054Z</time>  </trkpt>
  <trkpt lat="46.1813630" lon="13.9984875">  <ele>1096.771</ele>  <time>2017-12-03T11:50:22.963Z</time>  </trkpt>
  <trkpt lat="46.1813457" lon="13.9986488">  <ele>1096.200</ele>  <time>2017-12-03T11:50:26.829Z</time>  </trkpt>
  <trkpt lat="46.1813544" lon="13.9988022">  <ele>1096.003</ele>  <time>2017-12-03T11:50:30.481Z</time>  </trkpt>
  <trkpt lat="46.1813602" lon="13.9989319">  <ele>1096.253</ele>  <time>2017-12-03T11:50:33.573Z</time>  </trkpt>
  <trkpt lat="46.1813871" lon="13.9990808">  <ele>1096.820</ele>  <time>2017-12-03T11:50:37.691Z</time>  </trkpt>
  <trkpt lat="46.1814072" lon="13.9992269">  <ele>1096.982</ele>  <time>2017-12-03T11:50:41.603Z</time>  </trkpt>
  <trkpt lat="46.1814332" lon="13.9993927">  <ele>1096.104</ele>  <time>2017-12-03T11:50:45.453Z</time>  </trkpt>
  <trkpt lat="46.1814530" lon="13.9995273">  <ele>1094.332</ele>  <time>2017-12-03T11:50:48.252Z</time>  </trkpt>
  <trkpt lat="46.1814785" lon="13.9996610">  <ele>1092.361</ele>  <time>2017-12-03T11:50:51.046Z</time>  </trkpt>
  <trkpt lat="46.1815031" lon="13.9998278">  <ele>1090.635</ele>  <time>2017-12-03T11:50:54.560Z</time>  </trkpt>
  <trkpt lat="46.1815156" lon="13.9999816">  <ele>1088.878</ele>  <time>2017-12-03T11:50:57.924Z</time>  </trkpt>
  <trkpt lat="46.1815262" lon="14.0001115">  <ele>1086.605</ele>  <time>2017-12-03T11:51:00.954Z</time>  </trkpt>
  <trkpt lat="46.1815262" lon="14.0001115">  <ele>1084.238</ele>  <time>2017-12-03T11:51:02.954Z</time>  </trkpt>
  <trkpt lat="46.1815262" lon="14.0001115">  <ele>1082.730</ele>  <time>2017-12-03T11:51:03.054Z</time>  </trkpt>
  <trkpt lat="46.1815474" lon="14.0004407">  <ele>1082.380</ele>  <time>2017-12-03T11:51:20.255Z</time>  </trkpt>
  <trkpt lat="46.1816023" lon="14.0005528">  <ele>1082.454</ele>  <time>2017-12-03T11:51:26.034Z</time>  </trkpt>
  <trkpt lat="46.1815966" lon="14.0007021">  <ele>1082.154</ele>  <time>2017-12-03T11:51:32.537Z</time>  </trkpt>
  <trkpt lat="46.1815995" lon="14.0008399">  <ele>1081.436</ele>  <time>2017-12-03T11:51:37.953Z</time>  </trkpt>
  <trkpt lat="46.1815995" lon="14.0008399">  <ele>1080.776</ele>  <time>2017-12-03T11:51:40.953Z</time>  </trkpt>
  <trkpt lat="46.1815995" lon="14.0008399">  <ele>1080.395</ele>  <time>2017-12-03T11:51:41.053Z</time>  </trkpt>
  <trkpt lat="46.1815587" lon="14.0011025">  <ele>1080.116</ele>  <time>2017-12-03T11:51:52.071Z</time>  </trkpt>
  <trkpt lat="46.1815344" lon="14.0012427">  <ele>1079.058</ele>  <time>2017-12-03T11:51:56.386Z</time>  </trkpt>
  <trkpt lat="46.1815295" lon="14.0013875">  <ele>1076.715</ele>  <time>2017-12-03T11:52:00.879Z</time>  </trkpt>
  <trkpt lat="46.1815372" lon="14.0015345">  <ele>1073.842</ele>  <time>2017-12-03T11:52:05.853Z</time>  </trkpt>
  <trkpt lat="46.1815494" lon="14.0016678">  <ele>1071.306</ele>  <time>2017-12-03T11:52:11.409Z</time>  </trkpt>
  <trkpt lat="46.1815840" lon="14.0017879">  <ele>1069.456</ele>  <time>2017-12-03T11:52:18.460Z</time>  </trkpt>
  <trkpt lat="46.1815889" lon="14.0019285">  <ele>1068.420</ele>  <time>2017-12-03T11:52:27.034Z</time>  </trkpt>
  <trkpt lat="46.1816125" lon="14.0020674">  <ele>1067.941</ele>  <time>2017-12-03T11:52:34.158Z</time>  </trkpt>
  <trkpt lat="46.1816062" lon="14.0022003">  <ele>1067.787</ele>  <time>2017-12-03T11:52:39.447Z</time>  </trkpt>
  <trkpt lat="46.1815654" lon="14.0023267">  <ele>1067.567</ele>  <time>2017-12-03T11:52:44.378Z</time>  </trkpt>
  <trkpt lat="46.1815158" lon="14.0024528">  <ele>1067.021</ele>  <time>2017-12-03T11:52:49.142Z</time>  </trkpt>
  <trkpt lat="46.1814612" lon="14.0025691">  <ele>1066.975</ele>  <time>2017-12-03T11:52:53.536Z</time>  </trkpt>
  <trkpt lat="46.1813973" lon="14.0026844">  <ele>1068.093</ele>  <time>2017-12-03T11:52:58.689Z</time>  </trkpt>
  <trkpt lat="46.1813391" lon="14.0027918">  <ele>1069.513</ele>  <time>2017-12-03T11:53:04.467Z</time>  </trkpt>
  <trkpt lat="46.1812716" lon="14.0028909">  <ele>1070.286</ele>  <time>2017-12-03T11:53:11.585Z</time>  </trkpt>
  <trkpt lat="46.1812146" lon="14.0030001">  <ele>1070.430</ele>  <time>2017-12-03T11:53:20.154Z</time>  </trkpt>
  <trkpt lat="46.1811599" lon="14.0031212">  <ele>1070.248</ele>  <time>2017-12-03T11:53:28.588Z</time>  </trkpt>
  <trkpt lat="46.1810997" lon="14.0032265">  <ele>1070.017</ele>  <time>2017-12-03T11:53:35.951Z</time>  </trkpt>
  <trkpt lat="46.1810997" lon="14.0032265">  <ele>1069.729</ele>  <time>2017-12-03T11:53:43.950Z</time>  </trkpt>
  <trkpt lat="46.1810997" lon="14.0032265">  <ele>1069.257</ele>  <time>2017-12-03T11:53:44.050Z</time>  </trkpt>
  <trkpt lat="46.1811286" lon="14.0034495">  <ele>1068.757</ele>  <time>2017-12-03T11:53:56.221Z</time>  </trkpt>
  <trkpt lat="46.1811336" lon="14.0035907">  <ele>1068.470</ele>  <time>2017-12-03T11:54:00.950Z</time>  </trkpt>
  <trkpt lat="46.1811336" lon="14.0035907">  <ele>1068.216</ele>  <time>2017-12-03T11:54:02.950Z</time>  </trkpt>
  <trkpt lat="46.1811336" lon="14.0035907">  <ele>1067.755</ele>  <time>2017-12-03T11:54:03.050Z</time>  </trkpt>
  <trkpt lat="46.1811612" lon="14.0037218">  <ele>1066.965</ele>  <time>2017-12-03T11:54:17.431Z</time>  </trkpt>
  <trkpt lat="46.1811620" lon="14.0038605">  <ele>1066.132</ele>  <time>2017-12-03T11:54:28.414Z</time>  </trkpt>
  <trkpt lat="46.1811915" lon="14.0040092">  <ele>1064.172</ele>  <time>2017-12-03T11:54:41.595Z</time>  </trkpt>
  <trkpt lat="46.1811876" lon="14.0041552">  <ele>1061.858</ele>  <time>2017-12-03T11:54:53.734Z</time>  </trkpt>
  <trkpt lat="46.1811837" lon="14.0042961">  <ele>1060.081</ele>  <time>2017-12-03T11:55:07.069Z</time>  </trkpt>
  <trkpt lat="46.1811624" lon="14.0044490">  <ele>1058.804</ele>  <time>2017-12-03T11:55:24.948Z</time>  </trkpt>
  <trkpt lat="46.1811624" lon="14.0044490">  <ele>1057.853</ele>  <time>2017-12-03T11:55:37.948Z</time>  </trkpt>
  <trkpt lat="46.1811624" lon="14.0044490">  <ele>1057.162</ele>  <time>2017-12-03T11:55:38.048Z</time>  </trkpt>
  <trkpt lat="46.1812047" lon="14.0046303">  <ele>1056.764</ele>  <time>2017-12-03T11:55:45.743Z</time>  </trkpt>
  <trkpt lat="46.1812686" lon="14.0047490">  <ele>1055.749</ele>  <time>2017-12-03T11:55:48.948Z</time>  </trkpt>
  <trkpt lat="46.1812686" lon="14.0047490">  <ele>1053.554</ele>  <time>2017-12-03T11:55:49.948Z</time>  </trkpt>
  <trkpt lat="46.1812686" lon="14.0047490">  <ele>1051.598</ele>  <time>2017-12-03T11:55:50.048Z</time>  </trkpt>
  <trkpt lat="46.1813031" lon="14.0050002">  <ele>1051.198</ele>  <time>2017-12-03T11:56:00.082Z</time>  </trkpt>
  <trkpt lat="46.1813027" lon="14.0051496">  <ele>1050.569</ele>  <time>2017-12-03T11:56:03.307Z</time>  </trkpt>
  <trkpt lat="46.1813723" lon="14.0053197">  <ele>1048.124</ele>  <time>2017-12-03T11:56:06.494Z</time>  </trkpt>
  <trkpt lat="46.1814430" lon="14.0054716">  <ele>1045.026</ele>  <time>2017-12-03T11:56:09.224Z</time>  </trkpt>
  <trkpt lat="46.1814963" lon="14.0056129">  <ele>1042.649</ele>  <time>2017-12-03T11:56:11.850Z</time>  </trkpt>
  <trkpt lat="46.1815445" lon="14.0057250">  <ele>1040.704</ele>  <time>2017-12-03T11:56:14.304Z</time>  </trkpt>
  <trkpt lat="46.1815768" lon="14.0058475">  <ele>1038.612</ele>  <time>2017-12-03T11:56:16.957Z</time>  </trkpt>
  <trkpt lat="46.1816151" lon="14.0060020">  <ele>1035.922</ele>  <time>2017-12-03T11:56:20.258Z</time>  </trkpt>
  <trkpt lat="46.1816609" lon="14.0061411">  <ele>1032.985</ele>  <time>2017-12-03T11:56:22.947Z</time>  </trkpt>
  <trkpt lat="46.1816609" lon="14.0061411">  <ele>1030.832</ele>  <time>2017-12-03T11:56:28.947Z</time>  </trkpt>
  <trkpt lat="46.1816609" lon="14.0061411">  <ele>1029.879</ele>  <time>2017-12-03T11:56:29.047Z</time>  </trkpt>
  <trkpt lat="46.1816224" lon="14.0062930">  <ele>1029.586</ele>  <time>2017-12-03T11:56:53.557Z</time>  </trkpt>
  <trkpt lat="46.1816139" lon="14.0064479">  <ele>1028.817</ele>  <time>2017-12-03T11:57:00.242Z</time>  </trkpt>
  <trkpt lat="46.1815548" lon="14.0065691">  <ele>1026.085</ele>  <time>2017-12-03T11:57:06.959Z</time>  </trkpt>
  <trkpt lat="46.1815680" lon="14.0067080">  <ele>1021.851</ele>  <time>2017-12-03T11:57:13.311Z</time>  </trkpt>
  <trkpt lat="46.1815666" lon="14.0068593">  <ele>1018.537</ele>  <time>2017-12-03T11:57:21.952Z</time>  </trkpt>
  <trkpt lat="46.1815666" lon="14.0068593">  <ele>1017.178</ele>  <time>2017-12-03T11:57:23.952Z</time>  </trkpt>
  <trkpt lat="46.1815666" lon="14.0068593">  <ele>1016.908</ele>  <time>2017-12-03T11:57:24.052Z</time>  </trkpt>
  <trkpt lat="46.1816194" lon="14.0071527">  <ele>1016.971</ele>  <time>2017-12-03T11:57:49.814Z</time>  </trkpt>
  <trkpt lat="46.1816351" lon="14.0072833">  <ele>1017.267</ele>  <time>2017-12-03T11:57:56.391Z</time>  </trkpt>
  <trkpt lat="46.1816487" lon="14.0074138">  <ele>1017.885</ele>  <time>2017-12-03T11:58:03.393Z</time>  </trkpt>
  <trkpt lat="46.1816769" lon="14.0075426">  <ele>1018.507</ele>  <time>2017-12-03T11:58:10.814Z</time>  </trkpt>
  <trkpt lat="46.1816959" lon="14.0076817">  <ele>1018.703</ele>  <time>2017-12-03T11:58:18.407Z</time>  </trkpt>
  <trkpt lat="46.1817095" lon="14.0078177">  <ele>1018.454</ele>  <time>2017-12-03T11:58:25.312Z</time>  </trkpt>
  <trkpt lat="46.1817326" lon="14.0079576">  <ele>1017.878</ele>  <time>2017-12-03T11:58:31.854Z</time>  </trkpt>
  <trkpt lat="46.1817528" lon="14.0080996">  <ele>1016.947</ele>  <time>2017-12-03T11:58:37.776Z</time>  </trkpt>
  <trkpt lat="46.1817506" lon="14.0082457">  <ele>1015.798</ele>  <time>2017-12-03T11:58:43.606Z</time>  </trkpt>
  <trkpt lat="46.1817660" lon="14.0083833">  <ele>1014.750</ele>  <time>2017-12-03T11:58:49.367Z</time>  </trkpt>
  <trkpt lat="46.1817905" lon="14.0085117">  <ele>1014.004</ele>  <time>2017-12-03T11:58:54.950Z</time>  </trkpt>
  <trkpt lat="46.1817905" lon="14.0085117">  <ele>1013.517</ele>  <time>2017-12-03T11:58:59.950Z</time>  </trkpt>
  <trkpt lat="46.1817905" lon="14.0085117">  <ele>1013.175</ele>  <time>2017-12-03T11:59:00.050Z</time>  </trkpt>
  <trkpt lat="46.1818417" lon="14.0088369">  <ele>1012.868</ele>  <time>2017-12-03T11:59:11.203Z</time>  </trkpt>
  <trkpt lat="46.1818605" lon="14.0089849">  <ele>1012.356</ele>  <time>2017-12-03T11:59:13.949Z</time>  </trkpt>
  <trkpt lat="46.1818605" lon="14.0089849">  <ele>1011.590</ele>  <time>2017-12-03T11:59:24.949Z</time>  </trkpt>
  <trkpt lat="46.1818605" lon="14.0089849">  <ele>1010.893</ele>  <time>2017-12-03T12:01:10.683Z</time>  </trkpt>
  <trkpt lat="46.1818605" lon="14.0089849">  <ele>1010.345</ele>  <time>2017-12-03T12:01:31.947Z</time>  </trkpt>
  </trkseg>
  </trk>
  <extensions>  <fpdata xmlns="http://www.motionx.com/GPX-Extensions/1/1" sfv="10" origin="MotionXGPSFull 24.2 Build 5063R64">  <bin enc="base64">  RgIAAAACAAAAy2aDze+I1kEBAAAAwY+z6fmI1kEAAOAjWjfEQAoDAAD5MAoAE8nB8Txz  kEBotrI7wpKPQAAAAAAKAAAAVHJhY2sgMDE0ABQAAAAzIERlYyAyMDE3IDEwOjA5IGFt  AAAAAADej7Pp+YjWQXWvs+n5iNZBUrSdANs0pMq1IVBALAAAAAEAAACvHAAa9AIsQKUX  PLEgF0dAE8nB8TxzkEAAAAAAAAAUQAAAAAAAAAhAAAAAAAAIhEAAAAAAAAAAAAAAAABn  ZmZmZu5kQMQOfOhK1I9AAQAAAPsdxbuNKb+/AQAAAAEAAAAoYQAVD8TnP914A5gYXde/  AQAAAAEAAAADAAAABg/AnNKqqEAAAAAAAAAAAAEAAAAOAAAAVHJhY2tfMDE0LmdweAAB  AAAAUdm56fmI1kEKAAAAAQAAAAoAAABUcmFjayAwMTQAAAAAAAAAAAAAAAAAAAAAAHIY  AACUn/zm+YjWQQAAAAAAAAAAAAAAAAAAAAD/JUS8AgAAAAAAAAAAAAAAAQAAACcAAAAy  NC4yIEJ1aWxkIDUwNjNSNjQsIE1YQUUgOC4xIGIuIDYyNlI2NAAAAAAAyG0AAAEAAAAB  AgAAADa/I1qk5yNaBAUxBs/viNZBBTEGz++I1kEAAAAQpywYQAAAAAAB3GaDze+I1kHM  eDDp+YjWQQAA4CNaN8RAAAAAAAAAAAA=  </bin>  </fpdata>  </extensions>  </gpx>